<?xml version="1.0" encoding="UTF-8" standalone="no" ?>
<gpx xmlns="http://www.topografix.com/GPX/1/1" xmlns:xsi="http://www.w3.org/2001/XMLSchema-instance" xsi:schemaLocation="http://www.topografix.com/GPX/1/1 http://www.topografix.com/GPX/1/1/gpx.xsd" version="1.1" creator="VisuGPX - https://www.visugpx.com">
  <metadata>
    <name>16/18 Coirolle / Tence </name>
    <desc><![CDATA[File with points/tracks from Locus Map Classic/3.60.0]]></desc>
  </metadata>
  <trk>
    <name><![CDATA[Coirolle / Tence ]]></name>
    <extensions>
      <line xmlns="http://www.topografix.com/GPX/gpx_style/0/2">
        <color>0000FF</color>
        <opacity>0.59</opacity>
        <width>4.0</width>
      </line>
    </extensions>
    <trkseg>
      <trkpt lat="45.193" lon="4.40748">
        <ele>979.9</ele>
        <time>2022-05-07T05:01:38.000Z</time>
      </trkpt>
      <trkpt lat="45.19292" lon="4.40718">
        <ele>968.35</ele>
        <time>2022-05-07T05:03:03.801Z</time>
      </trkpt>
      <trkpt lat="45.19287" lon="4.40686">
        <ele>967.73</ele>
        <time>2022-05-07T05:03:23.024Z</time>
      </trkpt>
      <trkpt lat="45.19275" lon="4.40659">
        <ele>962.33</ele>
        <time>2022-05-07T05:04:01.796Z</time>
      </trkpt>
      <trkpt lat="45.19255" lon="4.40643">
        <ele>962.13</ele>
        <time>2022-05-07T05:04:30.948Z</time>
      </trkpt>
      <trkpt lat="45.19237" lon="4.40623">
        <ele>960.61</ele>
        <time>2022-05-07T05:04:55.557Z</time>
      </trkpt>
      <trkpt lat="45.1922" lon="4.40603">
        <ele>957.67</ele>
        <time>2022-05-07T05:05:26.022Z</time>
      </trkpt>
      <trkpt lat="45.19208" lon="4.40576">
        <ele>959.77</ele>
        <time>2022-05-07T05:05:58.837Z</time>
      </trkpt>
      <trkpt lat="45.19194" lon="4.4055">
        <ele>955.85</ele>
        <time>2022-05-07T05:06:37.102Z</time>
      </trkpt>
      <trkpt lat="45.19183" lon="4.40522">
        <ele>946.76</ele>
        <time>2022-05-07T05:07:23.000Z</time>
      </trkpt>
      <trkpt lat="45.19162" lon="4.40509">
        <ele>939.57</ele>
        <time>2022-05-07T05:08:01.000Z</time>
      </trkpt>
      <trkpt lat="45.19143" lon="4.4049">
        <ele>935.59</ele>
        <time>2022-05-07T05:08:29.761Z</time>
      </trkpt>
      <trkpt lat="45.19124" lon="4.40471">
        <ele>928.55</ele>
        <time>2022-05-07T05:08:58.697Z</time>
      </trkpt>
      <trkpt lat="45.19109" lon="4.40447">
        <ele>925.57</ele>
        <time>2022-05-07T05:09:26.000Z</time>
      </trkpt>
      <trkpt lat="45.19092" lon="4.40423">
        <ele>922.36</ele>
        <time>2022-05-07T05:09:50.065Z</time>
      </trkpt>
      <trkpt lat="45.19077" lon="4.404">
        <ele>920.51</ele>
        <time>2022-05-07T05:10:15.023Z</time>
      </trkpt>
      <trkpt lat="45.19062" lon="4.40375">
        <ele>915.73</ele>
        <time>2022-05-07T05:10:40.059Z</time>
      </trkpt>
      <trkpt lat="45.19046" lon="4.40353">
        <ele>911.74</ele>
        <time>2022-05-07T05:11:04.759Z</time>
      </trkpt>
      <trkpt lat="45.19031" lon="4.40329">
        <ele>909.11</ele>
        <time>2022-05-07T05:11:29.659Z</time>
      </trkpt>
      <trkpt lat="45.19013" lon="4.40307">
        <ele>906.65</ele>
        <time>2022-05-07T05:11:59.017Z</time>
      </trkpt>
      <trkpt lat="45.19002" lon="4.40279">
        <ele>902.27</ele>
        <time>2022-05-07T05:12:28.760Z</time>
      </trkpt>
      <trkpt lat="45.18987" lon="4.40254">
        <ele>902.27</ele>
        <time>2022-05-07T05:14:05.000Z</time>
      </trkpt>
      <trkpt lat="45.18976" lon="4.40225">
        <ele>904.09</ele>
        <time>2022-05-07T05:14:32.956Z</time>
      </trkpt>
      <trkpt lat="45.18977" lon="4.40192">
        <ele>898.88</ele>
        <time>2022-05-07T05:14:56.205Z</time>
      </trkpt>
      <trkpt lat="45.18984" lon="4.40162">
        <ele>916.05</ele>
        <time>2022-05-07T05:15:43.000Z</time>
      </trkpt>
      <trkpt lat="45.18994" lon="4.40133">
        <ele>930.17</ele>
        <time>2022-05-07T05:16:17.804Z</time>
      </trkpt>
      <trkpt lat="45.18979" lon="4.40106">
        <ele>931.97</ele>
        <time>2022-05-07T05:16:58.000Z</time>
      </trkpt>
      <trkpt lat="45.18964" lon="4.40084">
        <ele>930.89</ele>
        <time>2022-05-07T05:17:16.904Z</time>
      </trkpt>
      <trkpt lat="45.1895" lon="4.40058">
        <ele>926.5</ele>
        <time>2022-05-07T05:17:39.000Z</time>
      </trkpt>
      <trkpt lat="45.18937" lon="4.40031">
        <ele>929.33</ele>
        <time>2022-05-07T05:18:08.000Z</time>
      </trkpt>
      <trkpt lat="45.18924" lon="4.40006">
        <ele>925.12</ele>
        <time>2022-05-07T05:18:46.043Z</time>
      </trkpt>
      <trkpt lat="45.18901" lon="4.4001">
        <ele>931.93</ele>
        <time>2022-05-07T05:19:09.762Z</time>
      </trkpt>
      <trkpt lat="45.18882" lon="4.40029">
        <ele>937.62</ele>
        <time>2022-05-07T05:19:36.997Z</time>
      </trkpt>
      <trkpt lat="45.18859" lon="4.40031">
        <ele>941.14</ele>
        <time>2022-05-07T05:20:13.000Z</time>
      </trkpt>
      <trkpt lat="45.18843" lon="4.40009">
        <ele>948.21</ele>
        <time>2022-05-07T05:20:49.603Z</time>
      </trkpt>
      <trkpt lat="45.18821" lon="4.39995">
        <ele>953.07</ele>
        <time>2022-05-07T05:21:16.818Z</time>
      </trkpt>
      <trkpt lat="45.18798" lon="4.39988">
        <ele>947.85</ele>
        <time>2022-05-07T05:21:44.024Z</time>
      </trkpt>
      <trkpt lat="45.18775" lon="4.39983">
        <ele>952.16</ele>
        <time>2022-05-07T05:22:19.818Z</time>
      </trkpt>
      <trkpt lat="45.18753" lon="4.39984">
        <ele>954.11</ele>
        <time>2022-05-07T05:22:45.717Z</time>
      </trkpt>
      <trkpt lat="45.1873" lon="4.39983">
        <ele>957.01</ele>
        <time>2022-05-07T05:23:11.817Z</time>
      </trkpt>
      <trkpt lat="45.18707" lon="4.39986">
        <ele>954.6</ele>
        <time>2022-05-07T05:23:38.821Z</time>
      </trkpt>
      <trkpt lat="45.18685" lon="4.39994">
        <ele>954.97</ele>
        <time>2022-05-07T05:24:09.000Z</time>
      </trkpt>
      <trkpt lat="45.18662" lon="4.40003">
        <ele>955.5</ele>
        <time>2022-05-07T05:24:33.818Z</time>
      </trkpt>
      <trkpt lat="45.18639" lon="4.40009">
        <ele>949.8</ele>
        <time>2022-05-07T05:25:01.000Z</time>
      </trkpt>
      <trkpt lat="45.18645" lon="4.39977">
        <ele>952.42</ele>
        <time>2022-05-07T05:25:31.802Z</time>
      </trkpt>
      <trkpt lat="45.18663" lon="4.39958">
        <ele>952.93</ele>
        <time>2022-05-07T05:25:53.000Z</time>
      </trkpt>
      <trkpt lat="45.18677" lon="4.39931">
        <ele>951.09</ele>
        <time>2022-05-07T05:26:16.000Z</time>
      </trkpt>
      <trkpt lat="45.18695" lon="4.39911">
        <ele>950.49</ele>
        <time>2022-05-07T05:26:39.000Z</time>
      </trkpt>
      <trkpt lat="45.18709" lon="4.39886">
        <ele>950.32</ele>
        <time>2022-05-07T05:27:01.843Z</time>
      </trkpt>
      <trkpt lat="45.18724" lon="4.39857">
        <ele>951.64</ele>
        <time>2022-05-07T05:27:24.746Z</time>
      </trkpt>
      <trkpt lat="45.18737" lon="4.39829">
        <ele>953.09</ele>
        <time>2022-05-07T05:27:49.538Z</time>
      </trkpt>
      <trkpt lat="45.18737" lon="4.39797">
        <ele>952.49</ele>
        <time>2022-05-07T05:28:15.000Z</time>
      </trkpt>
      <trkpt lat="45.18715" lon="4.39807">
        <ele>957.85</ele>
        <time>2022-05-07T05:29:19.665Z</time>
      </trkpt>
      <trkpt lat="45.18698" lon="4.39829">
        <ele>958.14</ele>
        <time>2022-05-07T05:29:57.986Z</time>
      </trkpt>
      <trkpt lat="45.1868" lon="4.3985">
        <ele>959.39</ele>
        <time>2022-05-07T05:30:25.699Z</time>
      </trkpt>
      <trkpt lat="45.1866" lon="4.3987">
        <ele>961.66</ele>
        <time>2022-05-07T05:30:51.136Z</time>
      </trkpt>
      <trkpt lat="45.1864" lon="4.39884">
        <ele>964.25</ele>
        <time>2022-05-07T05:31:16.102Z</time>
      </trkpt>
      <trkpt lat="45.1862" lon="4.39902">
        <ele>968.97</ele>
        <time>2022-05-07T05:31:40.704Z</time>
      </trkpt>
      <trkpt lat="45.18601" lon="4.3992">
        <ele>970</ele>
        <time>2022-05-07T05:32:08.000Z</time>
      </trkpt>
      <trkpt lat="45.1858" lon="4.39934">
        <ele>969.32</ele>
        <time>2022-05-07T05:32:58.000Z</time>
      </trkpt>
      <trkpt lat="45.18561" lon="4.39951">
        <ele>973.87</ele>
        <time>2022-05-07T05:33:22.856Z</time>
      </trkpt>
      <trkpt lat="45.18541" lon="4.39966">
        <ele>975</ele>
        <time>2022-05-07T05:33:51.000Z</time>
      </trkpt>
      <trkpt lat="45.18519" lon="4.39981">
        <ele>978.98</ele>
        <time>2022-05-07T05:34:17.000Z</time>
      </trkpt>
      <trkpt lat="45.18498" lon="4.39993">
        <ele>982.06</ele>
        <time>2022-05-07T05:34:44.481Z</time>
      </trkpt>
      <trkpt lat="45.18475" lon="4.39998">
        <ele>981.41</ele>
        <time>2022-05-07T05:35:11.964Z</time>
      </trkpt>
      <trkpt lat="45.18475" lon="4.39966">
        <ele>987.81</ele>
        <time>2022-05-07T05:37:42.858Z</time>
      </trkpt>
      <trkpt lat="45.18481" lon="4.39934">
        <ele>991.64</ele>
        <time>2022-05-07T05:38:11.000Z</time>
      </trkpt>
      <trkpt lat="45.18492" lon="4.39906">
        <ele>984.87</ele>
        <time>2022-05-07T05:38:34.722Z</time>
      </trkpt>
      <trkpt lat="45.18499" lon="4.39875">
        <ele>990.95</ele>
        <time>2022-05-07T05:39:04.000Z</time>
      </trkpt>
      <trkpt lat="45.18491" lon="4.39845">
        <ele>998.7</ele>
        <time>2022-05-07T05:39:33.865Z</time>
      </trkpt>
      <trkpt lat="45.18491" lon="4.39813">
        <ele>1006.88</ele>
        <time>2022-05-07T05:40:19.000Z</time>
      </trkpt>
      <trkpt lat="45.18487" lon="4.39781">
        <ele>1019.97</ele>
        <time>2022-05-07T05:40:49.099Z</time>
      </trkpt>
      <trkpt lat="45.18489" lon="4.39749">
        <ele>1015.68</ele>
        <time>2022-05-07T05:41:20.000Z</time>
      </trkpt>
      <trkpt lat="45.1847" lon="4.39732">
        <ele>1016.68</ele>
        <time>2022-05-07T05:41:52.622Z</time>
      </trkpt>
      <trkpt lat="45.18452" lon="4.39712">
        <ele>1015.58</ele>
        <time>2022-05-07T05:42:24.000Z</time>
      </trkpt>
      <trkpt lat="45.18431" lon="4.39701">
        <ele>1013.21</ele>
        <time>2022-05-07T05:42:53.764Z</time>
      </trkpt>
      <trkpt lat="45.1841" lon="4.39716">
        <ele>1013.82</ele>
        <time>2022-05-07T05:43:16.962Z</time>
      </trkpt>
      <trkpt lat="45.18391" lon="4.39735">
        <ele>1017.22</ele>
        <time>2022-05-07T05:43:42.620Z</time>
      </trkpt>
      <trkpt lat="45.18372" lon="4.39754">
        <ele>1019.19</ele>
        <time>2022-05-07T05:44:06.885Z</time>
      </trkpt>
      <trkpt lat="45.18351" lon="4.39768">
        <ele>1017.6</ele>
        <time>2022-05-07T05:44:29.804Z</time>
      </trkpt>
      <trkpt lat="45.18331" lon="4.39783">
        <ele>1019.44</ele>
        <time>2022-05-07T05:44:52.000Z</time>
      </trkpt>
      <trkpt lat="45.1831" lon="4.39797">
        <ele>1019.51</ele>
        <time>2022-05-07T05:45:15.721Z</time>
      </trkpt>
      <trkpt lat="45.18289" lon="4.3981">
        <ele>1019.9</ele>
        <time>2022-05-07T05:45:39.878Z</time>
      </trkpt>
      <trkpt lat="45.18268" lon="4.39827">
        <ele>1018.57</ele>
        <time>2022-05-07T05:47:03.000Z</time>
      </trkpt>
      <trkpt lat="45.18244" lon="4.3983">
        <ele>1018.65</ele>
        <time>2022-05-07T05:47:25.043Z</time>
      </trkpt>
      <trkpt lat="45.18221" lon="4.39834">
        <ele>1016.78</ele>
        <time>2022-05-07T05:47:50.938Z</time>
      </trkpt>
      <trkpt lat="45.182" lon="4.39823">
        <ele>1009.28</ele>
        <time>2022-05-07T05:48:24.541Z</time>
      </trkpt>
      <trkpt lat="45.18177" lon="4.39828">
        <ele>1000.99</ele>
        <time>2022-05-07T05:48:59.000Z</time>
      </trkpt>
      <trkpt lat="45.18154" lon="4.39839">
        <ele>997.55</ele>
        <time>2022-05-07T05:49:33.116Z</time>
      </trkpt>
      <trkpt lat="45.18132" lon="4.39847">
        <ele>992.28</ele>
        <time>2022-05-07T05:50:08.000Z</time>
      </trkpt>
      <trkpt lat="45.1811" lon="4.39853">
        <ele>992.54</ele>
        <time>2022-05-07T05:50:33.123Z</time>
      </trkpt>
      <trkpt lat="45.18087" lon="4.3986">
        <ele>990.01</ele>
        <time>2022-05-07T05:50:57.562Z</time>
      </trkpt>
      <trkpt lat="45.18064" lon="4.39865">
        <ele>985.8</ele>
        <time>2022-05-07T05:51:21.479Z</time>
      </trkpt>
      <trkpt lat="45.18041" lon="4.39867">
        <ele>983.49</ele>
        <time>2022-05-07T05:51:43.062Z</time>
      </trkpt>
      <trkpt lat="45.18041" lon="4.39833">
        <ele>976.88</ele>
        <time>2022-05-07T05:52:19.018Z</time>
      </trkpt>
      <trkpt lat="45.18046" lon="4.39802">
        <ele>974.4</ele>
        <time>2022-05-07T05:52:40.678Z</time>
      </trkpt>
      <trkpt lat="45.18052" lon="4.39769">
        <ele>972.52</ele>
        <time>2022-05-07T05:53:02.426Z</time>
      </trkpt>
      <trkpt lat="45.18058" lon="4.39736">
        <ele>970.35</ele>
        <time>2022-05-07T05:53:23.182Z</time>
      </trkpt>
      <trkpt lat="45.18067" lon="4.39706">
        <ele>967.4</ele>
        <time>2022-05-07T05:53:46.000Z</time>
      </trkpt>
      <trkpt lat="45.18075" lon="4.39676">
        <ele>966.5</ele>
        <time>2022-05-07T05:54:07.000Z</time>
      </trkpt>
      <trkpt lat="45.18081" lon="4.39645">
        <ele>965.04</ele>
        <time>2022-05-07T05:54:25.957Z</time>
      </trkpt>
      <trkpt lat="45.18089" lon="4.39614">
        <ele>963.28</ele>
        <time>2022-05-07T05:54:47.357Z</time>
      </trkpt>
      <trkpt lat="45.18098" lon="4.39584">
        <ele>960.01</ele>
        <time>2022-05-07T05:55:07.596Z</time>
      </trkpt>
      <trkpt lat="45.18109" lon="4.39556">
        <ele>956.34</ele>
        <time>2022-05-07T05:55:28.402Z</time>
      </trkpt>
      <trkpt lat="45.18122" lon="4.39527">
        <ele>955.74</ele>
        <time>2022-05-07T05:55:49.017Z</time>
      </trkpt>
      <trkpt lat="45.18134" lon="4.395">
        <ele>953.02</ele>
        <time>2022-05-07T05:56:10.417Z</time>
      </trkpt>
      <trkpt lat="45.18149" lon="4.39475">
        <ele>951.3</ele>
        <time>2022-05-07T05:56:31.444Z</time>
      </trkpt>
      <trkpt lat="45.18156" lon="4.39442">
        <ele>951.53</ele>
        <time>2022-05-07T05:56:55.017Z</time>
      </trkpt>
      <trkpt lat="45.18148" lon="4.39412">
        <ele>950.91</ele>
        <time>2022-05-07T05:57:17.000Z</time>
      </trkpt>
      <trkpt lat="45.18146" lon="4.39379">
        <ele>949.04</ele>
        <time>2022-05-07T05:57:38.000Z</time>
      </trkpt>
      <trkpt lat="45.1814" lon="4.39348">
        <ele>946.16</ele>
        <time>2022-05-07T05:58:00.000Z</time>
      </trkpt>
      <trkpt lat="45.18135" lon="4.39316">
        <ele>943.5</ele>
        <time>2022-05-07T05:58:32.944Z</time>
      </trkpt>
      <trkpt lat="45.18131" lon="4.39284">
        <ele>941.33</ele>
        <time>2022-05-07T05:58:54.681Z</time>
      </trkpt>
      <trkpt lat="45.18131" lon="4.3925">
        <ele>939.61</ele>
        <time>2022-05-07T05:59:19.579Z</time>
      </trkpt>
      <trkpt lat="45.1813" lon="4.39218">
        <ele>940.19</ele>
        <time>2022-05-07T05:59:44.544Z</time>
      </trkpt>
      <trkpt lat="45.18124" lon="4.39186">
        <ele>936.62</ele>
        <time>2022-05-07T06:00:19.738Z</time>
      </trkpt>
      <trkpt lat="45.18113" lon="4.39157">
        <ele>936.62</ele>
        <time>2022-05-07T06:00:50.000Z</time>
      </trkpt>
      <trkpt lat="45.18106" lon="4.39127">
        <ele>938.39</ele>
        <time>2022-05-07T06:01:30.000Z</time>
      </trkpt>
      <trkpt lat="45.1811" lon="4.39096">
        <ele>930.02</ele>
        <time>2022-05-07T06:02:09.000Z</time>
      </trkpt>
      <trkpt lat="45.18118" lon="4.39065">
        <ele>927.21</ele>
        <time>2022-05-07T06:02:52.099Z</time>
      </trkpt>
      <trkpt lat="45.18104" lon="4.3909">
        <ele>910.42</ele>
        <time>2022-05-07T06:05:00.000Z</time>
      </trkpt>
      <trkpt lat="45.18097" lon="4.39122">
        <ele>913.24</ele>
        <time>2022-05-07T06:05:19.141Z</time>
      </trkpt>
      <trkpt lat="45.18093" lon="4.39154">
        <ele>911.39</ele>
        <time>2022-05-07T06:05:44.058Z</time>
      </trkpt>
      <trkpt lat="45.18088" lon="4.39185">
        <ele>908.81</ele>
        <time>2022-05-07T06:06:06.066Z</time>
      </trkpt>
      <trkpt lat="45.1808" lon="4.39217">
        <ele>903.8</ele>
        <time>2022-05-07T06:06:30.000Z</time>
      </trkpt>
      <trkpt lat="45.18071" lon="4.39247">
        <ele>903.97</ele>
        <time>2022-05-07T06:06:51.442Z</time>
      </trkpt>
      <trkpt lat="45.18062" lon="4.39276">
        <ele>904.16</ele>
        <time>2022-05-07T06:07:13.000Z</time>
      </trkpt>
      <trkpt lat="45.18047" lon="4.39301">
        <ele>903.68</ele>
        <time>2022-05-07T06:07:34.398Z</time>
      </trkpt>
      <trkpt lat="45.18034" lon="4.39327">
        <ele>900.47</ele>
        <time>2022-05-07T06:07:59.938Z</time>
      </trkpt>
      <trkpt lat="45.18021" lon="4.39353">
        <ele>899.38</ele>
        <time>2022-05-07T06:08:25.604Z</time>
      </trkpt>
      <trkpt lat="45.18006" lon="4.3938">
        <ele>895.53</ele>
        <time>2022-05-07T06:08:54.401Z</time>
      </trkpt>
      <trkpt lat="45.17993" lon="4.39405">
        <ele>888.83</ele>
        <time>2022-05-07T06:09:19.539Z</time>
      </trkpt>
      <trkpt lat="45.18002" lon="4.39376">
        <ele>876.71</ele>
        <time>2022-05-07T06:09:47.000Z</time>
      </trkpt>
      <trkpt lat="45.18014" lon="4.39348">
        <ele>867.04</ele>
        <time>2022-05-07T06:10:06.703Z</time>
      </trkpt>
      <trkpt lat="45.18022" lon="4.39318">
        <ele>865</ele>
        <time>2022-05-07T06:10:27.384Z</time>
      </trkpt>
      <trkpt lat="45.18027" lon="4.39285">
        <ele>864.22</ele>
        <time>2022-05-07T06:10:47.479Z</time>
      </trkpt>
      <trkpt lat="45.18032" lon="4.39253">
        <ele>864.37</ele>
        <time>2022-05-07T06:11:05.883Z</time>
      </trkpt>
      <trkpt lat="45.18039" lon="4.39222">
        <ele>862.91</ele>
        <time>2022-05-07T06:11:25.000Z</time>
      </trkpt>
      <trkpt lat="45.18043" lon="4.39191">
        <ele>863.47</ele>
        <time>2022-05-07T06:11:43.057Z</time>
      </trkpt>
      <trkpt lat="45.18046" lon="4.39159">
        <ele>864.07</ele>
        <time>2022-05-07T06:12:02.019Z</time>
      </trkpt>
      <trkpt lat="45.18049" lon="4.39126">
        <ele>865.21</ele>
        <time>2022-05-07T06:12:19.299Z</time>
      </trkpt>
      <trkpt lat="45.18043" lon="4.39094">
        <ele>866.57</ele>
        <time>2022-05-07T06:12:36.618Z</time>
      </trkpt>
      <trkpt lat="45.18039" lon="4.39063">
        <ele>868.06</ele>
        <time>2022-05-07T06:12:55.243Z</time>
      </trkpt>
      <trkpt lat="45.18052" lon="4.39035">
        <ele>866.66</ele>
        <time>2022-05-07T06:13:15.482Z</time>
      </trkpt>
      <trkpt lat="45.18067" lon="4.39011">
        <ele>866.98</ele>
        <time>2022-05-07T06:13:34.663Z</time>
      </trkpt>
      <trkpt lat="45.18084" lon="4.38989">
        <ele>864.02</ele>
        <time>2022-05-07T06:13:54.182Z</time>
      </trkpt>
      <trkpt lat="45.18101" lon="4.38967">
        <ele>864.34</ele>
        <time>2022-05-07T06:14:14.000Z</time>
      </trkpt>
      <trkpt lat="45.18116" lon="4.38943">
        <ele>865.49</ele>
        <time>2022-05-07T06:14:32.000Z</time>
      </trkpt>
      <trkpt lat="45.18132" lon="4.38919">
        <ele>865.65</ele>
        <time>2022-05-07T06:14:50.076Z</time>
      </trkpt>
      <trkpt lat="45.18145" lon="4.38892">
        <ele>868.72</ele>
        <time>2022-05-07T06:15:08.606Z</time>
      </trkpt>
      <trkpt lat="45.18159" lon="4.38867">
        <ele>866.75</ele>
        <time>2022-05-07T06:15:27.739Z</time>
      </trkpt>
      <trkpt lat="45.18178" lon="4.38849">
        <ele>867.69</ele>
        <time>2022-05-07T06:15:48.000Z</time>
      </trkpt>
      <trkpt lat="45.18173" lon="4.38818">
        <ele>875.01</ele>
        <time>2022-05-07T06:16:43.621Z</time>
      </trkpt>
      <trkpt lat="45.18195" lon="4.3881">
        <ele>870.12</ele>
        <time>2022-05-07T06:17:24.665Z</time>
      </trkpt>
      <trkpt lat="45.18212" lon="4.38789">
        <ele>865.94</ele>
        <time>2022-05-07T06:17:51.781Z</time>
      </trkpt>
      <trkpt lat="45.18229" lon="4.38768">
        <ele>867.19</ele>
        <time>2022-05-07T06:18:22.585Z</time>
      </trkpt>
      <trkpt lat="45.18221" lon="4.38738">
        <ele>870.31</ele>
        <time>2022-05-07T06:19:40.000Z</time>
      </trkpt>
      <trkpt lat="45.18218" lon="4.38706">
        <ele>876.92</ele>
        <time>2022-05-07T06:20:11.139Z</time>
      </trkpt>
      <trkpt lat="45.18212" lon="4.38675">
        <ele>881.33</ele>
        <time>2022-05-07T06:21:01.000Z</time>
      </trkpt>
      <trkpt lat="45.18202" lon="4.38646">
        <ele>886.58</ele>
        <time>2022-05-07T06:21:37.000Z</time>
      </trkpt>
      <trkpt lat="45.18188" lon="4.3862">
        <ele>891.61</ele>
        <time>2022-05-07T06:22:10.000Z</time>
      </trkpt>
      <trkpt lat="45.18211" lon="4.38627">
        <ele>898.01</ele>
        <time>2022-05-07T06:23:12.000Z</time>
      </trkpt>
      <trkpt lat="45.18232" lon="4.38639">
        <ele>894.31</ele>
        <time>2022-05-07T06:23:49.000Z</time>
      </trkpt>
      <trkpt lat="45.18246" lon="4.38665">
        <ele>902.41</ele>
        <time>2022-05-07T06:24:20.000Z</time>
      </trkpt>
      <trkpt lat="45.18262" lon="4.38688">
        <ele>904.78</ele>
        <time>2022-05-07T06:24:50.747Z</time>
      </trkpt>
      <trkpt lat="45.18284" lon="4.38696">
        <ele>907.39</ele>
        <time>2022-05-07T06:25:32.741Z</time>
      </trkpt>
      <trkpt lat="45.18306" lon="4.38706">
        <ele>914.56</ele>
        <time>2022-05-07T06:26:14.000Z</time>
      </trkpt>
      <trkpt lat="45.18328" lon="4.38698">
        <ele>914.01</ele>
        <time>2022-05-07T06:26:50.079Z</time>
      </trkpt>
      <trkpt lat="45.18348" lon="4.3868">
        <ele>921.08</ele>
        <time>2022-05-07T06:27:29.000Z</time>
      </trkpt>
      <trkpt lat="45.18346" lon="4.38649">
        <ele>920.54</ele>
        <time>2022-05-07T06:29:10.097Z</time>
      </trkpt>
      <trkpt lat="45.18325" lon="4.38661">
        <ele>928.33</ele>
        <time>2022-05-07T06:29:27.943Z</time>
      </trkpt>
      <trkpt lat="45.18304" lon="4.38648">
        <ele>931.88</ele>
        <time>2022-05-07T06:30:00.997Z</time>
      </trkpt>
      <trkpt lat="45.1829" lon="4.38622">
        <ele>935.38</ele>
        <time>2022-05-07T06:31:36.000Z</time>
      </trkpt>
      <trkpt lat="45.18283" lon="4.38591">
        <ele>937.96</ele>
        <time>2022-05-07T06:32:14.000Z</time>
      </trkpt>
      <trkpt lat="45.18275" lon="4.38561">
        <ele>943.69</ele>
        <time>2022-05-07T06:33:08.143Z</time>
      </trkpt>
      <trkpt lat="45.1827" lon="4.38529">
        <ele>948.01</ele>
        <time>2022-05-07T06:34:34.000Z</time>
      </trkpt>
      <trkpt lat="45.18265" lon="4.38497">
        <ele>954</ele>
        <time>2022-05-07T06:35:05.822Z</time>
      </trkpt>
      <trkpt lat="45.18259" lon="4.38465">
        <ele>951.32</ele>
        <time>2022-05-07T06:35:50.019Z</time>
      </trkpt>
      <trkpt lat="45.18256" lon="4.38433">
        <ele>958.96</ele>
        <time>2022-05-07T06:36:26.817Z</time>
      </trkpt>
      <trkpt lat="45.18255" lon="4.384">
        <ele>965.08</ele>
        <time>2022-05-07T06:37:21.000Z</time>
      </trkpt>
      <trkpt lat="45.18237" lon="4.38381">
        <ele>964.63</ele>
        <time>2022-05-07T06:37:50.000Z</time>
      </trkpt>
      <trkpt lat="45.1822" lon="4.38358">
        <ele>977.47</ele>
        <time>2022-05-07T06:38:33.662Z</time>
      </trkpt>
      <trkpt lat="45.1823" lon="4.3833">
        <ele>975.82</ele>
        <time>2022-05-07T06:39:09.000Z</time>
      </trkpt>
      <trkpt lat="45.18235" lon="4.38298">
        <ele>986.39</ele>
        <time>2022-05-07T06:39:44.166Z</time>
      </trkpt>
      <trkpt lat="45.18238" lon="4.38265">
        <ele>979.89</ele>
        <time>2022-05-07T06:41:36.802Z</time>
      </trkpt>
      <trkpt lat="45.18253" lon="4.3824">
        <ele>983.82</ele>
        <time>2022-05-07T06:42:28.142Z</time>
      </trkpt>
      <trkpt lat="45.18249" lon="4.38208">
        <ele>993.73</ele>
        <time>2022-05-07T06:43:03.000Z</time>
      </trkpt>
      <trkpt lat="45.1824" lon="4.38178">
        <ele>994.06</ele>
        <time>2022-05-07T06:43:50.000Z</time>
      </trkpt>
      <trkpt lat="45.18248" lon="4.38147">
        <ele>997.91</ele>
        <time>2022-05-07T06:44:31.000Z</time>
      </trkpt>
      <trkpt lat="45.18255" lon="4.38116">
        <ele>999.03</ele>
        <time>2022-05-07T06:45:07.946Z</time>
      </trkpt>
      <trkpt lat="45.18261" lon="4.38085">
        <ele>1006.6</ele>
        <time>2022-05-07T06:45:40.897Z</time>
      </trkpt>
      <trkpt lat="45.18262" lon="4.38053">
        <ele>1005.13</ele>
        <time>2022-05-07T06:46:12.000Z</time>
      </trkpt>
      <trkpt lat="45.1826" lon="4.3802">
        <ele>1004</ele>
        <time>2022-05-07T06:46:42.065Z</time>
      </trkpt>
      <trkpt lat="45.18264" lon="4.37988">
        <ele>1002.84</ele>
        <time>2022-05-07T06:47:14.898Z</time>
      </trkpt>
      <trkpt lat="45.18271" lon="4.37956">
        <ele>997.19</ele>
        <time>2022-05-07T06:47:48.977Z</time>
      </trkpt>
      <trkpt lat="45.18278" lon="4.37926">
        <ele>1000.41</ele>
        <time>2022-05-07T06:48:13.945Z</time>
      </trkpt>
      <trkpt lat="45.18286" lon="4.37894">
        <ele>1002.85</ele>
        <time>2022-05-07T06:48:39.800Z</time>
      </trkpt>
      <trkpt lat="45.18293" lon="4.37864">
        <ele>1003.53</ele>
        <time>2022-05-07T06:49:05.937Z</time>
      </trkpt>
      <trkpt lat="45.18301" lon="4.37834">
        <ele>1013.07</ele>
        <time>2022-05-07T06:49:29.960Z</time>
      </trkpt>
      <trkpt lat="45.18306" lon="4.378">
        <ele>1017.84</ele>
        <time>2022-05-07T06:49:53.000Z</time>
      </trkpt>
      <trkpt lat="45.18316" lon="4.37768">
        <ele>1017.68</ele>
        <time>2022-05-07T06:50:18.000Z</time>
      </trkpt>
      <trkpt lat="45.18318" lon="4.37736">
        <ele>1020.39</ele>
        <time>2022-05-07T06:50:42.540Z</time>
      </trkpt>
      <trkpt lat="45.18317" lon="4.37704">
        <ele>1015.79</ele>
        <time>2022-05-07T06:51:08.000Z</time>
      </trkpt>
      <trkpt lat="45.18314" lon="4.37672">
        <ele>1019.74</ele>
        <time>2022-05-07T06:51:32.882Z</time>
      </trkpt>
      <trkpt lat="45.18308" lon="4.37641">
        <ele>1030.19</ele>
        <time>2022-05-07T06:52:03.177Z</time>
      </trkpt>
      <trkpt lat="45.18303" lon="4.37607">
        <ele>1032.03</ele>
        <time>2022-05-07T06:52:32.100Z</time>
      </trkpt>
      <trkpt lat="45.1831" lon="4.37577">
        <ele>1032.89</ele>
        <time>2022-05-07T06:53:00.061Z</time>
      </trkpt>
      <trkpt lat="45.18318" lon="4.37547">
        <ele>1032.93</ele>
        <time>2022-05-07T06:54:04.024Z</time>
      </trkpt>
      <trkpt lat="45.18315" lon="4.37514">
        <ele>1036.82</ele>
        <time>2022-05-07T06:54:39.000Z</time>
      </trkpt>
      <trkpt lat="45.18315" lon="4.37482">
        <ele>1043.19</ele>
        <time>2022-05-07T06:55:12.000Z</time>
      </trkpt>
      <trkpt lat="45.18317" lon="4.3745">
        <ele>1030.84</ele>
        <time>2022-05-07T06:55:45.745Z</time>
      </trkpt>
      <trkpt lat="45.18318" lon="4.37418">
        <ele>1024.28</ele>
        <time>2022-05-07T06:56:12.582Z</time>
      </trkpt>
      <trkpt lat="45.18319" lon="4.37386">
        <ele>1025.43</ele>
        <time>2022-05-07T06:56:35.559Z</time>
      </trkpt>
      <trkpt lat="45.18323" lon="4.37354">
        <ele>1022.94</ele>
        <time>2022-05-07T06:57:00.985Z</time>
      </trkpt>
      <trkpt lat="45.18326" lon="4.37322">
        <ele>1023.22</ele>
        <time>2022-05-07T06:57:23.182Z</time>
      </trkpt>
      <trkpt lat="45.18331" lon="4.37287">
        <ele>1028.45</ele>
        <time>2022-05-07T06:57:43.622Z</time>
      </trkpt>
      <trkpt lat="45.18337" lon="4.37256">
        <ele>1033.02</ele>
        <time>2022-05-07T06:58:01.681Z</time>
      </trkpt>
      <trkpt lat="45.18346" lon="4.37226">
        <ele>1031.34</ele>
        <time>2022-05-07T06:58:24.042Z</time>
      </trkpt>
      <trkpt lat="45.18351" lon="4.37194">
        <ele>1032.69</ele>
        <time>2022-05-07T06:58:43.878Z</time>
      </trkpt>
      <trkpt lat="45.18356" lon="4.37163">
        <ele>1025.99</ele>
        <time>2022-05-07T07:02:37.000Z</time>
      </trkpt>
      <trkpt lat="45.18366" lon="4.37134">
        <ele>1023.11</ele>
        <time>2022-05-07T07:04:53.538Z</time>
      </trkpt>
      <trkpt lat="45.18371" lon="4.37101">
        <ele>1024.64</ele>
        <time>2022-05-07T07:05:16.119Z</time>
      </trkpt>
      <trkpt lat="45.18376" lon="4.37067">
        <ele>1025.7</ele>
        <time>2022-05-07T07:05:40.000Z</time>
      </trkpt>
      <trkpt lat="45.18388" lon="4.37037">
        <ele>1023.95</ele>
        <time>2022-05-07T07:06:02.000Z</time>
      </trkpt>
      <trkpt lat="45.18395" lon="4.37006">
        <ele>1028.26</ele>
        <time>2022-05-07T07:06:19.618Z</time>
      </trkpt>
      <trkpt lat="45.18399" lon="4.36973">
        <ele>1026.15</ele>
        <time>2022-05-07T07:06:43.938Z</time>
      </trkpt>
      <trkpt lat="45.18402" lon="4.36939">
        <ele>1028.56</ele>
        <time>2022-05-07T07:07:10.000Z</time>
      </trkpt>
      <trkpt lat="45.18407" lon="4.36907">
        <ele>1025.36</ele>
        <time>2022-05-07T07:07:31.000Z</time>
      </trkpt>
      <trkpt lat="45.18407" lon="4.36874">
        <ele>1022.48</ele>
        <time>2022-05-07T07:08:02.000Z</time>
      </trkpt>
      <trkpt lat="45.18411" lon="4.36842">
        <ele>1024.32</ele>
        <time>2022-05-07T07:08:20.777Z</time>
      </trkpt>
      <trkpt lat="45.18417" lon="4.36811">
        <ele>1027.39</ele>
        <time>2022-05-07T07:08:40.401Z</time>
      </trkpt>
      <trkpt lat="45.18421" lon="4.36779">
        <ele>1023.34</ele>
        <time>2022-05-07T07:09:11.761Z</time>
      </trkpt>
      <trkpt lat="45.18424" lon="4.36747">
        <ele>1024.77</ele>
        <time>2022-05-07T07:09:28.000Z</time>
      </trkpt>
      <trkpt lat="45.18427" lon="4.36716">
        <ele>1029.71</ele>
        <time>2022-05-07T07:09:44.381Z</time>
      </trkpt>
      <trkpt lat="45.18436" lon="4.36685">
        <ele>1033.08</ele>
        <time>2022-05-07T07:10:06.683Z</time>
      </trkpt>
      <trkpt lat="45.18437" lon="4.3665">
        <ele>1033.09</ele>
        <time>2022-05-07T07:10:36.000Z</time>
      </trkpt>
      <trkpt lat="45.18439" lon="4.36618">
        <ele>1025.48</ele>
        <time>2022-05-07T07:10:54.084Z</time>
      </trkpt>
      <trkpt lat="45.18437" lon="4.36586">
        <ele>1026.67</ele>
        <time>2022-05-07T07:11:17.000Z</time>
      </trkpt>
      <trkpt lat="45.18437" lon="4.36554">
        <ele>1028.79</ele>
        <time>2022-05-07T07:11:41.000Z</time>
      </trkpt>
      <trkpt lat="45.18436" lon="4.3652">
        <ele>1028.21</ele>
        <time>2022-05-07T07:12:07.823Z</time>
      </trkpt>
      <trkpt lat="45.18434" lon="4.36488">
        <ele>1030.61</ele>
        <time>2022-05-07T07:12:32.959Z</time>
      </trkpt>
      <trkpt lat="45.18433" lon="4.36455">
        <ele>1036.7</ele>
        <time>2022-05-07T07:12:56.665Z</time>
      </trkpt>
      <trkpt lat="45.18433" lon="4.36422">
        <ele>1041.31</ele>
        <time>2022-05-07T07:13:16.538Z</time>
      </trkpt>
      <trkpt lat="45.18438" lon="4.36389">
        <ele>1030.88</ele>
        <time>2022-05-07T07:13:52.740Z</time>
      </trkpt>
      <trkpt lat="45.1845" lon="4.36361">
        <ele>1027.03</ele>
        <time>2022-05-07T07:16:30.696Z</time>
      </trkpt>
      <trkpt lat="45.18459" lon="4.36332">
        <ele>1031.64</ele>
        <time>2022-05-07T07:16:50.463Z</time>
      </trkpt>
      <trkpt lat="45.18466" lon="4.36301">
        <ele>1032.79</ele>
        <time>2022-05-07T07:17:10.317Z</time>
      </trkpt>
      <trkpt lat="45.18471" lon="4.36268">
        <ele>1031.92</ele>
        <time>2022-05-07T07:17:31.103Z</time>
      </trkpt>
      <trkpt lat="45.18482" lon="4.3624">
        <ele>1027.57</ele>
        <time>2022-05-07T07:17:52.000Z</time>
      </trkpt>
      <trkpt lat="45.18491" lon="4.3621">
        <ele>1026.71</ele>
        <time>2022-05-07T07:18:10.475Z</time>
      </trkpt>
      <trkpt lat="45.18501" lon="4.36181">
        <ele>1029.73</ele>
        <time>2022-05-07T07:18:29.062Z</time>
      </trkpt>
      <trkpt lat="45.18509" lon="4.36148">
        <ele>1032.11</ele>
        <time>2022-05-07T07:18:48.963Z</time>
      </trkpt>
      <trkpt lat="45.18517" lon="4.36118">
        <ele>1031.87</ele>
        <time>2022-05-07T07:19:08.836Z</time>
      </trkpt>
      <trkpt lat="45.18527" lon="4.36089">
        <ele>1030.88</ele>
        <time>2022-05-07T07:19:29.064Z</time>
      </trkpt>
      <trkpt lat="45.1854" lon="4.36061">
        <ele>1031.45</ele>
        <time>2022-05-07T07:19:47.477Z</time>
      </trkpt>
      <trkpt lat="45.18549" lon="4.36031">
        <ele>1029.72</ele>
        <time>2022-05-07T07:20:07.561Z</time>
      </trkpt>
      <trkpt lat="45.18559" lon="4.36001">
        <ele>1030.59</ele>
        <time>2022-05-07T07:20:28.559Z</time>
      </trkpt>
      <trkpt lat="45.18568" lon="4.35971">
        <ele>1030.2</ele>
        <time>2022-05-07T07:20:49.000Z</time>
      </trkpt>
      <trkpt lat="45.18575" lon="4.35938">
        <ele>1031.96</ele>
        <time>2022-05-07T07:21:10.100Z</time>
      </trkpt>
      <trkpt lat="45.18576" lon="4.35906">
        <ele>1033.33</ele>
        <time>2022-05-07T07:21:42.701Z</time>
      </trkpt>
      <trkpt lat="45.18586" lon="4.35877">
        <ele>1030.23</ele>
        <time>2022-05-07T07:22:03.601Z</time>
      </trkpt>
      <trkpt lat="45.18593" lon="4.35844">
        <ele>1026.39</ele>
        <time>2022-05-07T07:22:24.982Z</time>
      </trkpt>
      <trkpt lat="45.18601" lon="4.35814">
        <ele>1022.81</ele>
        <time>2022-05-07T07:22:45.929Z</time>
      </trkpt>
      <trkpt lat="45.18605" lon="4.3578">
        <ele>1022.35</ele>
        <time>2022-05-07T07:23:09.000Z</time>
      </trkpt>
      <trkpt lat="45.18608" lon="4.35747">
        <ele>1022.2</ele>
        <time>2022-05-07T07:23:52.000Z</time>
      </trkpt>
      <trkpt lat="45.18609" lon="4.35715">
        <ele>1019.25</ele>
        <time>2022-05-07T07:24:10.543Z</time>
      </trkpt>
      <trkpt lat="45.18616" lon="4.35683">
        <ele>1015.38</ele>
        <time>2022-05-07T07:24:32.876Z</time>
      </trkpt>
      <trkpt lat="45.18624" lon="4.35653">
        <ele>1020.05</ele>
        <time>2022-05-07T07:24:53.000Z</time>
      </trkpt>
      <trkpt lat="45.18618" lon="4.35622">
        <ele>1017.69</ele>
        <time>2022-05-07T07:25:22.678Z</time>
      </trkpt>
      <trkpt lat="45.18616" lon="4.35588">
        <ele>1012.14</ele>
        <time>2022-05-07T07:25:51.802Z</time>
      </trkpt>
      <trkpt lat="45.18603" lon="4.35561">
        <ele>1006.56</ele>
        <time>2022-05-07T07:26:39.000Z</time>
      </trkpt>
      <trkpt lat="45.18601" lon="4.35526">
        <ele>1004.29</ele>
        <time>2022-05-07T07:27:04.000Z</time>
      </trkpt>
      <trkpt lat="45.186" lon="4.35493">
        <ele>998.61</ele>
        <time>2022-05-07T07:27:28.000Z</time>
      </trkpt>
      <trkpt lat="45.18594" lon="4.35462">
        <ele>993.73</ele>
        <time>2022-05-07T07:27:47.936Z</time>
      </trkpt>
      <trkpt lat="45.18598" lon="4.3543">
        <ele>993.05</ele>
        <time>2022-05-07T07:28:09.404Z</time>
      </trkpt>
      <trkpt lat="45.18606" lon="4.35399">
        <ele>990.51</ele>
        <time>2022-05-07T07:28:30.362Z</time>
      </trkpt>
      <trkpt lat="45.18614" lon="4.35369">
        <ele>988.65</ele>
        <time>2022-05-07T07:28:48.440Z</time>
      </trkpt>
      <trkpt lat="45.18618" lon="4.35337">
        <ele>990.37</ele>
        <time>2022-05-07T07:29:08.456Z</time>
      </trkpt>
      <trkpt lat="45.18632" lon="4.35309">
        <ele>993.1</ele>
        <time>2022-05-07T07:30:04.002Z</time>
      </trkpt>
      <trkpt lat="45.18643" lon="4.35279">
        <ele>984.52</ele>
        <time>2022-05-07T07:30:29.000Z</time>
      </trkpt>
      <trkpt lat="45.1865" lon="4.35249">
        <ele>982.45</ele>
        <time>2022-05-07T07:30:46.679Z</time>
      </trkpt>
      <trkpt lat="45.18656" lon="4.35218">
        <ele>981.59</ele>
        <time>2022-05-07T07:31:06.042Z</time>
      </trkpt>
      <trkpt lat="45.18663" lon="4.35185">
        <ele>982.66</ele>
        <time>2022-05-07T07:31:24.416Z</time>
      </trkpt>
      <trkpt lat="45.18671" lon="4.35155">
        <ele>980.44</ele>
        <time>2022-05-07T07:31:49.000Z</time>
      </trkpt>
      <trkpt lat="45.18679" lon="4.35124">
        <ele>978.53</ele>
        <time>2022-05-07T07:32:06.862Z</time>
      </trkpt>
      <trkpt lat="45.18689" lon="4.35096">
        <ele>978.02</ele>
        <time>2022-05-07T07:32:24.140Z</time>
      </trkpt>
      <trkpt lat="45.18693" lon="4.35063">
        <ele>977.65</ele>
        <time>2022-05-07T07:32:43.822Z</time>
      </trkpt>
      <trkpt lat="45.18701" lon="4.35032">
        <ele>975.17</ele>
        <time>2022-05-07T07:33:04.000Z</time>
      </trkpt>
      <trkpt lat="45.18707" lon="4.35001">
        <ele>975.16</ele>
        <time>2022-05-07T07:33:23.577Z</time>
      </trkpt>
      <trkpt lat="45.18705" lon="4.34969">
        <ele>975.28</ele>
        <time>2022-05-07T07:33:43.602Z</time>
      </trkpt>
      <trkpt lat="45.18705" lon="4.34935">
        <ele>974.84</ele>
        <time>2022-05-07T07:34:05.119Z</time>
      </trkpt>
      <trkpt lat="45.18705" lon="4.34903">
        <ele>972.49</ele>
        <time>2022-05-07T07:34:27.000Z</time>
      </trkpt>
      <trkpt lat="45.18703" lon="4.3487">
        <ele>969.79</ele>
        <time>2022-05-07T07:34:48.000Z</time>
      </trkpt>
      <trkpt lat="45.18704" lon="4.34838">
        <ele>967.73</ele>
        <time>2022-05-07T07:35:05.986Z</time>
      </trkpt>
      <trkpt lat="45.18701" lon="4.34804">
        <ele>967.96</ele>
        <time>2022-05-07T07:35:27.000Z</time>
      </trkpt>
      <trkpt lat="45.18703" lon="4.34771">
        <ele>964.36</ele>
        <time>2022-05-07T07:37:20.659Z</time>
      </trkpt>
      <trkpt lat="45.187" lon="4.34739">
        <ele>962.37</ele>
        <time>2022-05-07T07:37:41.416Z</time>
      </trkpt>
      <trkpt lat="45.18698" lon="4.34707">
        <ele>955.69</ele>
        <time>2022-05-07T07:38:01.874Z</time>
      </trkpt>
      <trkpt lat="45.18699" lon="4.34675">
        <ele>945.22</ele>
        <time>2022-05-07T07:38:24.735Z</time>
      </trkpt>
      <trkpt lat="45.18693" lon="4.34644">
        <ele>941.06</ele>
        <time>2022-05-07T07:38:45.799Z</time>
      </trkpt>
      <trkpt lat="45.18684" lon="4.34614">
        <ele>945.18</ele>
        <time>2022-05-07T07:39:04.519Z</time>
      </trkpt>
      <trkpt lat="45.18685" lon="4.34581">
        <ele>936.5</ele>
        <time>2022-05-07T07:39:47.000Z</time>
      </trkpt>
      <trkpt lat="45.1868" lon="4.3455">
        <ele>950.69</ele>
        <time>2022-05-07T07:40:06.539Z</time>
      </trkpt>
      <trkpt lat="45.18678" lon="4.34518">
        <ele>950.15</ele>
        <time>2022-05-07T07:40:24.761Z</time>
      </trkpt>
      <trkpt lat="45.18676" lon="4.34486">
        <ele>949.51</ele>
        <time>2022-05-07T07:40:45.815Z</time>
      </trkpt>
      <trkpt lat="45.18677" lon="4.34453">
        <ele>947.64</ele>
        <time>2022-05-07T07:41:07.560Z</time>
      </trkpt>
      <trkpt lat="45.18679" lon="4.34419">
        <ele>947.35</ele>
        <time>2022-05-07T07:41:27.895Z</time>
      </trkpt>
      <trkpt lat="45.18682" lon="4.34386">
        <ele>948.68</ele>
        <time>2022-05-07T07:41:47.596Z</time>
      </trkpt>
      <trkpt lat="45.18686" lon="4.34354">
        <ele>947.8</ele>
        <time>2022-05-07T07:42:09.562Z</time>
      </trkpt>
      <trkpt lat="45.18691" lon="4.34321">
        <ele>947.9</ele>
        <time>2022-05-07T07:42:30.656Z</time>
      </trkpt>
      <trkpt lat="45.18692" lon="4.34289">
        <ele>952.25</ele>
        <time>2022-05-07T07:42:49.115Z</time>
      </trkpt>
      <trkpt lat="45.18686" lon="4.34258">
        <ele>948.66</ele>
        <time>2022-05-07T07:43:10.862Z</time>
      </trkpt>
      <trkpt lat="45.18676" lon="4.34227">
        <ele>950.07</ele>
        <time>2022-05-07T07:43:39.000Z</time>
      </trkpt>
      <trkpt lat="45.18669" lon="4.34196">
        <ele>946.98</ele>
        <time>2022-05-07T07:44:35.000Z</time>
      </trkpt>
      <trkpt lat="45.18662" lon="4.34164">
        <ele>940.61</ele>
        <time>2022-05-07T07:44:56.116Z</time>
      </trkpt>
      <trkpt lat="45.18656" lon="4.34132">
        <ele>944.42</ele>
        <time>2022-05-07T07:45:13.539Z</time>
      </trkpt>
      <trkpt lat="45.18648" lon="4.34101">
        <ele>949.09</ele>
        <time>2022-05-07T07:45:33.000Z</time>
      </trkpt>
      <trkpt lat="45.1864" lon="4.34071">
        <ele>948.6</ele>
        <time>2022-05-07T07:45:51.192Z</time>
      </trkpt>
      <trkpt lat="45.18636" lon="4.34037">
        <ele>945.07</ele>
        <time>2022-05-07T07:46:10.192Z</time>
      </trkpt>
      <trkpt lat="45.18625" lon="4.34007">
        <ele>943.72</ele>
        <time>2022-05-07T07:46:29.172Z</time>
      </trkpt>
      <trkpt lat="45.18622" lon="4.33975">
        <ele>945.34</ele>
        <time>2022-05-07T07:46:51.000Z</time>
      </trkpt>
      <trkpt lat="45.18623" lon="4.33943">
        <ele>945</ele>
        <time>2022-05-07T07:47:12.000Z</time>
      </trkpt>
      <trkpt lat="45.18628" lon="4.33911">
        <ele>943.78</ele>
        <time>2022-05-07T07:47:30.579Z</time>
      </trkpt>
      <trkpt lat="45.18627" lon="4.33879">
        <ele>944.72</ele>
        <time>2022-05-07T07:47:53.000Z</time>
      </trkpt>
      <trkpt lat="45.18615" lon="4.33851">
        <ele>941.4</ele>
        <time>2022-05-07T07:48:13.937Z</time>
      </trkpt>
      <trkpt lat="45.18593" lon="4.33852">
        <ele>937.19</ele>
        <time>2022-05-07T07:48:33.072Z</time>
      </trkpt>
      <trkpt lat="45.18571" lon="4.33863">
        <ele>934.18</ele>
        <time>2022-05-07T07:48:53.137Z</time>
      </trkpt>
      <trkpt lat="45.18549" lon="4.33858">
        <ele>932.75</ele>
        <time>2022-05-07T07:49:17.159Z</time>
      </trkpt>
      <trkpt lat="45.18556" lon="4.33826">
        <ele>933.41</ele>
        <time>2022-05-07T07:49:37.995Z</time>
      </trkpt>
      <trkpt lat="45.18567" lon="4.33798">
        <ele>931.98</ele>
        <time>2022-05-07T07:49:57.656Z</time>
      </trkpt>
      <trkpt lat="45.18585" lon="4.33779">
        <ele>930.85</ele>
        <time>2022-05-07T07:50:18.212Z</time>
      </trkpt>
      <trkpt lat="45.18603" lon="4.33758">
        <ele>932.52</ele>
        <time>2022-05-07T07:50:40.316Z</time>
      </trkpt>
      <trkpt lat="45.18607" lon="4.33727">
        <ele>932.82</ele>
        <time>2022-05-07T07:51:01.034Z</time>
      </trkpt>
      <trkpt lat="45.18605" lon="4.33693">
        <ele>930.19</ele>
        <time>2022-05-07T07:51:21.454Z</time>
      </trkpt>
      <trkpt lat="45.18601" lon="4.33658">
        <ele>930.56</ele>
        <time>2022-05-07T07:51:43.000Z</time>
      </trkpt>
      <trkpt lat="45.18598" lon="4.33626">
        <ele>932.35</ele>
        <time>2022-05-07T07:52:02.000Z</time>
      </trkpt>
      <trkpt lat="45.18594" lon="4.33595">
        <ele>930.64</ele>
        <time>2022-05-07T07:52:21.056Z</time>
      </trkpt>
      <trkpt lat="45.1859" lon="4.33562">
        <ele>930.63</ele>
        <time>2022-05-07T07:52:42.000Z</time>
      </trkpt>
      <trkpt lat="45.18585" lon="4.3353">
        <ele>933.76</ele>
        <time>2022-05-07T07:53:24.653Z</time>
      </trkpt>
      <trkpt lat="45.18583" lon="4.33497">
        <ele>935.36</ele>
        <time>2022-05-07T07:53:51.759Z</time>
      </trkpt>
      <trkpt lat="45.18584" lon="4.33463">
        <ele>939.5</ele>
        <time>2022-05-07T07:54:20.939Z</time>
      </trkpt>
      <trkpt lat="45.18583" lon="4.33429">
        <ele>941.79</ele>
        <time>2022-05-07T07:54:47.001Z</time>
      </trkpt>
      <trkpt lat="45.18585" lon="4.33397">
        <ele>940.6</ele>
        <time>2022-05-07T07:55:10.716Z</time>
      </trkpt>
      <trkpt lat="45.1859" lon="4.33366">
        <ele>941.28</ele>
        <time>2022-05-07T07:55:30.656Z</time>
      </trkpt>
      <trkpt lat="45.18597" lon="4.33335">
        <ele>940.29</ele>
        <time>2022-05-07T07:55:50.674Z</time>
      </trkpt>
      <trkpt lat="45.18603" lon="4.33304">
        <ele>939.58</ele>
        <time>2022-05-07T07:56:10.836Z</time>
      </trkpt>
      <trkpt lat="45.18609" lon="4.33272">
        <ele>938.35</ele>
        <time>2022-05-07T07:56:31.143Z</time>
      </trkpt>
      <trkpt lat="45.18616" lon="4.3324">
        <ele>936.82</ele>
        <time>2022-05-07T07:56:50.717Z</time>
      </trkpt>
      <trkpt lat="45.18622" lon="4.33209">
        <ele>936.17</ele>
        <time>2022-05-07T07:57:13.000Z</time>
      </trkpt>
      <trkpt lat="45.18627" lon="4.33177">
        <ele>936.48</ele>
        <time>2022-05-07T07:57:32.798Z</time>
      </trkpt>
      <trkpt lat="45.18627" lon="4.33145">
        <ele>934.96</ele>
        <time>2022-05-07T07:57:55.861Z</time>
      </trkpt>
      <trkpt lat="45.18627" lon="4.33113">
        <ele>934.3</ele>
        <time>2022-05-07T07:58:16.080Z</time>
      </trkpt>
      <trkpt lat="45.18625" lon="4.3308">
        <ele>933.91</ele>
        <time>2022-05-07T07:58:41.000Z</time>
      </trkpt>
      <trkpt lat="45.18625" lon="4.33049">
        <ele>933.68</ele>
        <time>2022-05-07T07:58:58.698Z</time>
      </trkpt>
      <trkpt lat="45.18626" lon="4.33015">
        <ele>933.82</ele>
        <time>2022-05-07T07:59:19.000Z</time>
      </trkpt>
      <trkpt lat="45.18626" lon="4.32981">
        <ele>933.66</ele>
        <time>2022-05-07T07:59:39.061Z</time>
      </trkpt>
      <trkpt lat="45.1863" lon="4.32948">
        <ele>934.11</ele>
        <time>2022-05-07T08:00:11.997Z</time>
      </trkpt>
      <trkpt lat="45.18631" lon="4.32914">
        <ele>935.03</ele>
        <time>2022-05-07T08:00:32.000Z</time>
      </trkpt>
      <trkpt lat="45.18631" lon="4.32882">
        <ele>931.44</ele>
        <time>2022-05-07T08:00:50.380Z</time>
      </trkpt>
      <trkpt lat="45.18629" lon="4.3285">
        <ele>931.45</ele>
        <time>2022-05-07T08:01:10.195Z</time>
      </trkpt>
      <trkpt lat="45.18625" lon="4.32818">
        <ele>928.01</ele>
        <time>2022-05-07T08:01:31.000Z</time>
      </trkpt>
      <trkpt lat="45.18621" lon="4.32786">
        <ele>926.99</ele>
        <time>2022-05-07T08:01:48.358Z</time>
      </trkpt>
      <trkpt lat="45.18619" lon="4.32754">
        <ele>928.04</ele>
        <time>2022-05-07T08:02:07.022Z</time>
      </trkpt>
      <trkpt lat="45.18614" lon="4.32722">
        <ele>923.34</ele>
        <time>2022-05-07T08:02:28.595Z</time>
      </trkpt>
      <trkpt lat="45.18613" lon="4.3269">
        <ele>923.71</ele>
        <time>2022-05-07T08:02:48.478Z</time>
      </trkpt>
      <trkpt lat="45.1861" lon="4.32657">
        <ele>923.34</ele>
        <time>2022-05-07T08:03:09.955Z</time>
      </trkpt>
      <trkpt lat="45.18605" lon="4.32626">
        <ele>922.04</ele>
        <time>2022-05-07T08:03:30.895Z</time>
      </trkpt>
      <trkpt lat="45.18604" lon="4.32593">
        <ele>921.84</ele>
        <time>2022-05-07T08:03:50.000Z</time>
      </trkpt>
      <trkpt lat="45.18604" lon="4.32561">
        <ele>920.7</ele>
        <time>2022-05-07T08:04:09.835Z</time>
      </trkpt>
      <trkpt lat="45.186" lon="4.32527">
        <ele>920.77</ele>
        <time>2022-05-07T08:04:30.000Z</time>
      </trkpt>
      <trkpt lat="45.18601" lon="4.32495">
        <ele>920.47</ele>
        <time>2022-05-07T08:04:50.000Z</time>
      </trkpt>
      <trkpt lat="45.186" lon="4.32463">
        <ele>919.59</ele>
        <time>2022-05-07T08:05:09.397Z</time>
      </trkpt>
      <trkpt lat="45.18598" lon="4.32429">
        <ele>919.73</ele>
        <time>2022-05-07T08:05:29.358Z</time>
      </trkpt>
      <trkpt lat="45.18597" lon="4.32395">
        <ele>915.33</ele>
        <time>2022-05-07T08:05:50.056Z</time>
      </trkpt>
      <trkpt lat="45.18595" lon="4.32361">
        <ele>915.33</ele>
        <time>2022-05-07T08:06:10.113Z</time>
      </trkpt>
      <trkpt lat="45.18593" lon="4.32327">
        <ele>915.33</ele>
        <time>2022-05-07T08:06:30.218Z</time>
      </trkpt>
      <trkpt lat="45.18592" lon="4.32295">
        <ele>920.36</ele>
        <time>2022-05-07T08:06:49.677Z</time>
      </trkpt>
      <trkpt lat="45.18591" lon="4.32261">
        <ele>918.26</ele>
        <time>2022-05-07T08:07:10.214Z</time>
      </trkpt>
      <trkpt lat="45.18592" lon="4.32229">
        <ele>918.33</ele>
        <time>2022-05-07T08:07:32.000Z</time>
      </trkpt>
      <trkpt lat="45.18592" lon="4.32195">
        <ele>917.13</ele>
        <time>2022-05-07T08:07:52.197Z</time>
      </trkpt>
      <trkpt lat="45.18594" lon="4.32161">
        <ele>917.22</ele>
        <time>2022-05-07T08:08:18.181Z</time>
      </trkpt>
      <trkpt lat="45.18597" lon="4.32129">
        <ele>917.22</ele>
        <time>2022-05-07T08:08:38.036Z</time>
      </trkpt>
      <trkpt lat="45.18594" lon="4.32097">
        <ele>917.22</ele>
        <time>2022-05-07T08:09:06.878Z</time>
      </trkpt>
      <trkpt lat="45.18594" lon="4.32065">
        <ele>917.22</ele>
        <time>2022-05-07T08:09:27.636Z</time>
      </trkpt>
      <trkpt lat="45.18595" lon="4.32031">
        <ele>918.04</ele>
        <time>2022-05-07T08:09:50.945Z</time>
      </trkpt>
      <trkpt lat="45.18596" lon="4.31998">
        <ele>890.13</ele>
        <time>2022-05-07T08:10:14.837Z</time>
      </trkpt>
      <trkpt lat="45.18597" lon="4.31966">
        <ele>890.12</ele>
        <time>2022-05-07T08:10:36.736Z</time>
      </trkpt>
      <trkpt lat="45.18598" lon="4.31932">
        <ele>890.12</ele>
        <time>2022-05-07T08:10:59.000Z</time>
      </trkpt>
      <trkpt lat="45.186" lon="4.31899">
        <ele>916.87</ele>
        <time>2022-05-07T08:11:19.556Z</time>
      </trkpt>
      <trkpt lat="45.18602" lon="4.31867">
        <ele>916.29</ele>
        <time>2022-05-07T08:11:43.000Z</time>
      </trkpt>
      <trkpt lat="45.18604" lon="4.31834">
        <ele>915.33</ele>
        <time>2022-05-07T08:12:08.000Z</time>
      </trkpt>
      <trkpt lat="45.18605" lon="4.31801">
        <ele>916.01</ele>
        <time>2022-05-07T08:12:33.180Z</time>
      </trkpt>
      <trkpt lat="45.18605" lon="4.31769">
        <ele>931.21</ele>
        <time>2022-05-07T08:12:59.000Z</time>
      </trkpt>
      <trkpt lat="45.18609" lon="4.31735">
        <ele>930.06</ele>
        <time>2022-05-07T08:14:06.698Z</time>
      </trkpt>
      <trkpt lat="45.18606" lon="4.31702">
        <ele>929.74</ele>
        <time>2022-05-07T08:14:26.792Z</time>
      </trkpt>
      <trkpt lat="45.18606" lon="4.3167">
        <ele>929.48</ele>
        <time>2022-05-07T08:14:46.656Z</time>
      </trkpt>
      <trkpt lat="45.18595" lon="4.31641">
        <ele>929.46</ele>
        <time>2022-05-07T08:15:11.813Z</time>
      </trkpt>
      <trkpt lat="45.18589" lon="4.3161">
        <ele>929.21</ele>
        <time>2022-05-07T08:15:37.000Z</time>
      </trkpt>
      <trkpt lat="45.18578" lon="4.31582">
        <ele>924.4</ele>
        <time>2022-05-07T08:15:55.593Z</time>
      </trkpt>
      <trkpt lat="45.18567" lon="4.31551">
        <ele>924.51</ele>
        <time>2022-05-07T08:16:16.946Z</time>
      </trkpt>
      <trkpt lat="45.18556" lon="4.31522">
        <ele>923.31</ele>
        <time>2022-05-07T08:16:37.635Z</time>
      </trkpt>
      <trkpt lat="45.18546" lon="4.31494">
        <ele>922.2</ele>
        <time>2022-05-07T08:17:02.000Z</time>
      </trkpt>
      <trkpt lat="45.18535" lon="4.31464">
        <ele>922.3</ele>
        <time>2022-05-07T08:17:26.594Z</time>
      </trkpt>
      <trkpt lat="45.18524" lon="4.31434">
        <ele>918.53</ele>
        <time>2022-05-07T08:17:52.415Z</time>
      </trkpt>
      <trkpt lat="45.18515" lon="4.31404">
        <ele>918.1</ele>
        <time>2022-05-07T08:18:14.054Z</time>
      </trkpt>
      <trkpt lat="45.18511" lon="4.31373">
        <ele>918.1</ele>
        <time>2022-05-07T08:18:35.013Z</time>
      </trkpt>
      <trkpt lat="45.18499" lon="4.31345">
        <ele>917.32</ele>
        <time>2022-05-07T08:18:57.200Z</time>
      </trkpt>
      <trkpt lat="45.18483" lon="4.31322">
        <ele>917</ele>
        <time>2022-05-07T08:19:23.000Z</time>
      </trkpt>
      <trkpt lat="45.18479" lon="4.3129">
        <ele>917.48</ele>
        <time>2022-05-07T08:20:38.835Z</time>
      </trkpt>
      <trkpt lat="45.18473" lon="4.31258">
        <ele>921.1</ele>
        <time>2022-05-07T08:21:04.000Z</time>
      </trkpt>
      <trkpt lat="45.18451" lon="4.31247">
        <ele>916.56</ele>
        <time>2022-05-07T08:24:00.000Z</time>
      </trkpt>
      <trkpt lat="45.18455" lon="4.31215">
        <ele>924.51</ele>
        <time>2022-05-07T08:35:54.000Z</time>
      </trkpt>
      <trkpt lat="45.18452" lon="4.31183">
        <ele>926.22</ele>
        <time>2022-05-07T08:36:25.000Z</time>
      </trkpt>
      <trkpt lat="45.1844" lon="4.31154">
        <ele>924.09</ele>
        <time>2022-05-07T08:36:53.000Z</time>
      </trkpt>
      <trkpt lat="45.18439" lon="4.31121">
        <ele>926.03</ele>
        <time>2022-05-07T08:37:15.000Z</time>
      </trkpt>
      <trkpt lat="45.18438" lon="4.31089">
        <ele>929.77</ele>
        <time>2022-05-07T08:37:37.895Z</time>
      </trkpt>
      <trkpt lat="45.18435" lon="4.31057">
        <ele>929.23</ele>
        <time>2022-05-07T08:38:00.000Z</time>
      </trkpt>
      <trkpt lat="45.18433" lon="4.31023">
        <ele>928.41</ele>
        <time>2022-05-07T08:38:21.495Z</time>
      </trkpt>
      <trkpt lat="45.18432" lon="4.3099">
        <ele>930.47</ele>
        <time>2022-05-07T08:38:43.177Z</time>
      </trkpt>
      <trkpt lat="45.18434" lon="4.30958">
        <ele>928.94</ele>
        <time>2022-05-07T08:39:10.620Z</time>
      </trkpt>
      <trkpt lat="45.1843" lon="4.30927">
        <ele>928.02</ele>
        <time>2022-05-07T08:39:33.000Z</time>
      </trkpt>
      <trkpt lat="45.18431" lon="4.30895">
        <ele>924.14</ele>
        <time>2022-05-07T08:39:54.136Z</time>
      </trkpt>
      <trkpt lat="45.18436" lon="4.30863">
        <ele>923.29</ele>
        <time>2022-05-07T08:40:15.414Z</time>
      </trkpt>
      <trkpt lat="45.18441" lon="4.30832">
        <ele>919.58</ele>
        <time>2022-05-07T08:40:38.073Z</time>
      </trkpt>
      <trkpt lat="45.18446" lon="4.308">
        <ele>918.62</ele>
        <time>2022-05-07T08:41:02.000Z</time>
      </trkpt>
      <trkpt lat="45.18451" lon="4.30768">
        <ele>917.09</ele>
        <time>2022-05-07T08:41:22.000Z</time>
      </trkpt>
      <trkpt lat="45.18456" lon="4.30734">
        <ele>917.35</ele>
        <time>2022-05-07T08:41:41.981Z</time>
      </trkpt>
      <trkpt lat="45.18461" lon="4.30702">
        <ele>915.73</ele>
        <time>2022-05-07T08:42:02.039Z</time>
      </trkpt>
      <trkpt lat="45.18464" lon="4.3067">
        <ele>915.2</ele>
        <time>2022-05-07T08:42:22.337Z</time>
      </trkpt>
      <trkpt lat="45.18469" lon="4.30638">
        <ele>915.16</ele>
        <time>2022-05-07T08:42:42.057Z</time>
      </trkpt>
      <trkpt lat="45.18458" lon="4.3061">
        <ele>915.75</ele>
        <time>2022-05-07T08:43:03.680Z</time>
      </trkpt>
      <trkpt lat="45.18447" lon="4.30581">
        <ele>918.48</ele>
        <time>2022-05-07T08:43:26.053Z</time>
      </trkpt>
      <trkpt lat="45.18438" lon="4.30551">
        <ele>916.02</ele>
        <time>2022-05-07T08:43:47.000Z</time>
      </trkpt>
      <trkpt lat="45.18431" lon="4.30521">
        <ele>916.38</ele>
        <time>2022-05-07T08:44:07.000Z</time>
      </trkpt>
      <trkpt lat="45.18423" lon="4.3049">
        <ele>916.39</ele>
        <time>2022-05-07T08:44:27.519Z</time>
      </trkpt>
      <trkpt lat="45.18416" lon="4.30459">
        <ele>915.29</ele>
        <time>2022-05-07T08:44:50.815Z</time>
      </trkpt>
      <trkpt lat="45.18406" lon="4.3043">
        <ele>915.68</ele>
        <time>2022-05-07T08:45:16.636Z</time>
      </trkpt>
      <trkpt lat="45.18395" lon="4.30401">
        <ele>914.24</ele>
        <time>2022-05-07T08:45:40.946Z</time>
      </trkpt>
      <trkpt lat="45.18386" lon="4.30372">
        <ele>916.16</ele>
        <time>2022-05-07T08:46:05.000Z</time>
      </trkpt>
      <trkpt lat="45.18383" lon="4.30339">
        <ele>917.8</ele>
        <time>2022-05-07T08:47:13.039Z</time>
      </trkpt>
      <trkpt lat="45.18382" lon="4.30306">
        <ele>919.27</ele>
        <time>2022-05-07T08:47:33.719Z</time>
      </trkpt>
      <trkpt lat="45.18385" lon="4.30274">
        <ele>916.78</ele>
        <time>2022-05-07T08:47:57.000Z</time>
      </trkpt>
      <trkpt lat="45.1839" lon="4.30243">
        <ele>916.14</ele>
        <time>2022-05-07T08:48:16.955Z</time>
      </trkpt>
      <trkpt lat="45.18393" lon="4.30209">
        <ele>916.85</ele>
        <time>2022-05-07T08:48:38.962Z</time>
      </trkpt>
      <trkpt lat="45.18394" lon="4.30174">
        <ele>914.37</ele>
        <time>2022-05-07T08:48:59.738Z</time>
      </trkpt>
      <trkpt lat="45.18398" lon="4.30142">
        <ele>914.03</ele>
        <time>2022-05-07T08:49:21.000Z</time>
      </trkpt>
      <trkpt lat="45.18403" lon="4.3011">
        <ele>907.44</ele>
        <time>2022-05-07T08:49:40.140Z</time>
      </trkpt>
      <trkpt lat="45.184" lon="4.30079">
        <ele>912.23</ele>
        <time>2022-05-07T08:50:01.000Z</time>
      </trkpt>
      <trkpt lat="45.18393" lon="4.30048">
        <ele>908.56</ele>
        <time>2022-05-07T08:50:21.000Z</time>
      </trkpt>
      <trkpt lat="45.18384" lon="4.30018">
        <ele>906.98</ele>
        <time>2022-05-07T08:50:42.758Z</time>
      </trkpt>
      <trkpt lat="45.18368" lon="4.29995">
        <ele>908.58</ele>
        <time>2022-05-07T08:51:05.033Z</time>
      </trkpt>
      <trkpt lat="45.18348" lon="4.29978">
        <ele>909.23</ele>
        <time>2022-05-07T08:51:25.000Z</time>
      </trkpt>
      <trkpt lat="45.1833" lon="4.2996">
        <ele>898.76</ele>
        <time>2022-05-07T08:51:52.600Z</time>
      </trkpt>
      <trkpt lat="45.18312" lon="4.29938">
        <ele>898.96</ele>
        <time>2022-05-07T08:52:15.000Z</time>
      </trkpt>
      <trkpt lat="45.18298" lon="4.29913">
        <ele>898.76</ele>
        <time>2022-05-07T08:52:33.617Z</time>
      </trkpt>
      <trkpt lat="45.18291" lon="4.29882">
        <ele>898.96</ele>
        <time>2022-05-07T08:52:54.951Z</time>
      </trkpt>
      <trkpt lat="45.18277" lon="4.29855">
        <ele>898.81</ele>
        <time>2022-05-07T08:53:17.000Z</time>
      </trkpt>
      <trkpt lat="45.18265" lon="4.29828">
        <ele>906.66</ele>
        <time>2022-05-07T08:53:39.000Z</time>
      </trkpt>
      <trkpt lat="45.18258" lon="4.29797">
        <ele>914.92</ele>
        <time>2022-05-07T08:54:02.102Z</time>
      </trkpt>
      <trkpt lat="45.18244" lon="4.29771">
        <ele>922.57</ele>
        <time>2022-05-07T08:56:28.722Z</time>
      </trkpt>
      <trkpt lat="45.18245" lon="4.29739">
        <ele>919.41</ele>
        <time>2022-05-07T08:56:49.113Z</time>
      </trkpt>
      <trkpt lat="45.18232" lon="4.29711">
        <ele>917.54</ele>
        <time>2022-05-07T08:57:11.859Z</time>
      </trkpt>
      <trkpt lat="45.18228" lon="4.29679">
        <ele>913.44</ele>
        <time>2022-05-07T08:57:38.000Z</time>
      </trkpt>
      <trkpt lat="45.18235" lon="4.29649">
        <ele>911.32</ele>
        <time>2022-05-07T08:58:00.174Z</time>
      </trkpt>
      <trkpt lat="45.18247" lon="4.2962">
        <ele>912.6</ele>
        <time>2022-05-07T08:58:22.000Z</time>
      </trkpt>
      <trkpt lat="45.18255" lon="4.29587">
        <ele>911.91</ele>
        <time>2022-05-07T08:58:44.602Z</time>
      </trkpt>
      <trkpt lat="45.18254" lon="4.29554">
        <ele>911.36</ele>
        <time>2022-05-07T08:59:04.176Z</time>
      </trkpt>
      <trkpt lat="45.18248" lon="4.29522">
        <ele>914.18</ele>
        <time>2022-05-07T08:59:25.001Z</time>
      </trkpt>
      <trkpt lat="45.18248" lon="4.2949">
        <ele>913.61</ele>
        <time>2022-05-07T08:59:48.000Z</time>
      </trkpt>
      <trkpt lat="45.18249" lon="4.29458">
        <ele>911.28</ele>
        <time>2022-05-07T09:00:10.733Z</time>
      </trkpt>
      <trkpt lat="45.1824" lon="4.29428">
        <ele>913.61</ele>
        <time>2022-05-07T09:00:36.000Z</time>
      </trkpt>
      <trkpt lat="45.18241" lon="4.29395">
        <ele>900.04</ele>
        <time>2022-05-07T09:01:11.000Z</time>
      </trkpt>
      <trkpt lat="45.18234" lon="4.29364">
        <ele>892.27</ele>
        <time>2022-05-07T09:01:42.860Z</time>
      </trkpt>
      <trkpt lat="45.18233" lon="4.2933">
        <ele>879.64</ele>
        <time>2022-05-07T09:02:28.645Z</time>
      </trkpt>
      <trkpt lat="45.18235" lon="4.29297">
        <ele>879.64</ele>
        <time>2022-05-07T09:02:50.000Z</time>
      </trkpt>
      <trkpt lat="45.18237" lon="4.29265">
        <ele>878.85</ele>
        <time>2022-05-07T09:03:08.125Z</time>
      </trkpt>
      <trkpt lat="45.18239" lon="4.29234">
        <ele>891.28</ele>
        <time>2022-05-07T09:03:29.000Z</time>
      </trkpt>
      <trkpt lat="45.18242" lon="4.29202">
        <ele>728.85</ele>
        <time>2022-05-07T09:03:48.603Z</time>
      </trkpt>
      <trkpt lat="45.18243" lon="4.2917">
        <ele>888.41</ele>
        <time>2022-05-07T09:04:09.562Z</time>
      </trkpt>
      <trkpt lat="45.18248" lon="4.29139">
        <ele>888.2</ele>
        <time>2022-05-07T09:04:29.398Z</time>
      </trkpt>
      <trkpt lat="45.1826" lon="4.2911">
        <ele>883.96</ele>
        <time>2022-05-07T09:04:52.704Z</time>
      </trkpt>
      <trkpt lat="45.18249" lon="4.29081">
        <ele>728.83</ele>
        <time>2022-05-07T09:05:11.462Z</time>
      </trkpt>
      <trkpt lat="45.18235" lon="4.29056">
        <ele>876.62</ele>
        <time>2022-05-07T09:05:33.325Z</time>
      </trkpt>
      <trkpt lat="45.18214" lon="4.29045">
        <ele>874.07</ele>
        <time>2022-05-07T09:05:54.083Z</time>
      </trkpt>
      <trkpt lat="45.18191" lon="4.29035">
        <ele>870.49</ele>
        <time>2022-05-07T09:06:14.322Z</time>
      </trkpt>
      <trkpt lat="45.18174" lon="4.29014">
        <ele>867.54</ele>
        <time>2022-05-07T09:06:36.262Z</time>
      </trkpt>
      <trkpt lat="45.18156" lon="4.28994">
        <ele>865.32</ele>
        <time>2022-05-07T09:06:58.096Z</time>
      </trkpt>
      <trkpt lat="45.18134" lon="4.28981">
        <ele>862.48</ele>
        <time>2022-05-07T09:07:20.000Z</time>
      </trkpt>
      <trkpt lat="45.18112" lon="4.28972">
        <ele>861.39</ele>
        <time>2022-05-07T09:07:37.558Z</time>
      </trkpt>
      <trkpt lat="45.1809" lon="4.28963">
        <ele>874.43</ele>
        <time>2022-05-07T09:08:00.000Z</time>
      </trkpt>
      <trkpt lat="45.18067" lon="4.28955">
        <ele>874.43</ele>
        <time>2022-05-07T09:08:20.583Z</time>
      </trkpt>
      <trkpt lat="45.18046" lon="4.28944">
        <ele>857.76</ele>
        <time>2022-05-07T09:08:42.000Z</time>
      </trkpt>
      <trkpt lat="45.18024" lon="4.28939">
        <ele>857.48</ele>
        <time>2022-05-07T09:09:01.000Z</time>
      </trkpt>
      <trkpt lat="45.18002" lon="4.2893">
        <ele>855.16</ele>
        <time>2022-05-07T09:09:20.658Z</time>
      </trkpt>
      <trkpt lat="45.1798" lon="4.28923">
        <ele>854.6</ele>
        <time>2022-05-07T09:09:40.677Z</time>
      </trkpt>
      <trkpt lat="45.17958" lon="4.28914">
        <ele>853.9</ele>
        <time>2022-05-07T09:10:01.000Z</time>
      </trkpt>
      <trkpt lat="45.17936" lon="4.28907">
        <ele>853.05</ele>
        <time>2022-05-07T09:10:21.502Z</time>
      </trkpt>
      <trkpt lat="45.17913" lon="4.28897">
        <ele>850.48</ele>
        <time>2022-05-07T09:10:43.000Z</time>
      </trkpt>
      <trkpt lat="45.17892" lon="4.28885">
        <ele>847.98</ele>
        <time>2022-05-07T09:11:01.741Z</time>
      </trkpt>
      <trkpt lat="45.17874" lon="4.28864">
        <ele>847.86</ele>
        <time>2022-05-07T09:11:48.000Z</time>
      </trkpt>
      <trkpt lat="45.17862" lon="4.28836">
        <ele>847.34</ele>
        <time>2022-05-07T09:12:09.853Z</time>
      </trkpt>
      <trkpt lat="45.17865" lon="4.28803">
        <ele>849.9</ele>
        <time>2022-05-07T09:12:34.000Z</time>
      </trkpt>
      <trkpt lat="45.17867" lon="4.28771">
        <ele>852.81</ele>
        <time>2022-05-07T09:12:59.000Z</time>
      </trkpt>
      <trkpt lat="45.1787" lon="4.28739">
        <ele>864.82</ele>
        <time>2022-05-07T09:13:17.497Z</time>
      </trkpt>
      <trkpt lat="45.17864" lon="4.28707">
        <ele>864.82</ele>
        <time>2022-05-07T09:13:37.698Z</time>
      </trkpt>
      <trkpt lat="45.17857" lon="4.28674">
        <ele>854.21</ele>
        <time>2022-05-07T09:14:03.117Z</time>
      </trkpt>
      <trkpt lat="45.17847" lon="4.28645">
        <ele>864.82</ele>
        <time>2022-05-07T09:14:27.640Z</time>
      </trkpt>
      <trkpt lat="45.17844" lon="4.28613">
        <ele>854.56</ele>
        <time>2022-05-07T09:15:02.000Z</time>
      </trkpt>
      <trkpt lat="45.17836" lon="4.28583">
        <ele>851.96</ele>
        <time>2022-05-07T09:15:29.000Z</time>
      </trkpt>
      <trkpt lat="45.17824" lon="4.28556">
        <ele>857.18</ele>
        <time>2022-05-07T09:15:55.000Z</time>
      </trkpt>
      <trkpt lat="45.17823" lon="4.28524">
        <ele>873.01</ele>
        <time>2022-05-07T09:16:17.119Z</time>
      </trkpt>
      <trkpt lat="45.17819" lon="4.28492">
        <ele>873.65</ele>
        <time>2022-05-07T09:16:55.000Z</time>
      </trkpt>
      <trkpt lat="45.17807" lon="4.28464">
        <ele>872.44</ele>
        <time>2022-05-07T09:17:26.194Z</time>
      </trkpt>
      <trkpt lat="45.17803" lon="4.28433">
        <ele>864.09</ele>
        <time>2022-05-07T09:17:56.858Z</time>
      </trkpt>
      <trkpt lat="45.17789" lon="4.28406">
        <ele>875.51</ele>
        <time>2022-05-07T09:18:17.154Z</time>
      </trkpt>
      <trkpt lat="45.17775" lon="4.2838">
        <ele>878.49</ele>
        <time>2022-05-07T09:18:37.760Z</time>
      </trkpt>
      <trkpt lat="45.17755" lon="4.28365">
        <ele>874.45</ele>
        <time>2022-05-07T09:19:02.400Z</time>
      </trkpt>
      <trkpt lat="45.17735" lon="4.2835">
        <ele>871.19</ele>
        <time>2022-05-07T09:19:31.000Z</time>
      </trkpt>
      <trkpt lat="45.17711" lon="4.28346">
        <ele>867.2</ele>
        <time>2022-05-07T09:20:03.000Z</time>
      </trkpt>
      <trkpt lat="45.17691" lon="4.28332">
        <ele>876.19</ele>
        <time>2022-05-07T09:20:26.799Z</time>
      </trkpt>
      <trkpt lat="45.17674" lon="4.2831">
        <ele>876.26</ele>
        <time>2022-05-07T09:20:51.573Z</time>
      </trkpt>
      <trkpt lat="45.17655" lon="4.2829">
        <ele>878.01</ele>
        <time>2022-05-07T09:21:25.000Z</time>
      </trkpt>
      <trkpt lat="45.17642" lon="4.28264">
        <ele>880.45</ele>
        <time>2022-05-07T09:21:53.812Z</time>
      </trkpt>
      <trkpt lat="45.17628" lon="4.28238">
        <ele>880.18</ele>
        <time>2022-05-07T09:22:19.000Z</time>
      </trkpt>
      <trkpt lat="45.17616" lon="4.2821">
        <ele>879.81</ele>
        <time>2022-05-07T09:22:44.955Z</time>
      </trkpt>
      <trkpt lat="45.17605" lon="4.28182">
        <ele>880.25</ele>
        <time>2022-05-07T09:23:09.855Z</time>
      </trkpt>
      <trkpt lat="45.17589" lon="4.28157">
        <ele>875.59</ele>
        <time>2022-05-07T09:23:40.894Z</time>
      </trkpt>
      <trkpt lat="45.17573" lon="4.28133">
        <ele>878.51</ele>
        <time>2022-05-07T09:24:30.978Z</time>
      </trkpt>
      <trkpt lat="45.17553" lon="4.28115">
        <ele>879.79</ele>
        <time>2022-05-07T09:24:58.855Z</time>
      </trkpt>
      <trkpt lat="45.17531" lon="4.28103">
        <ele>878.51</ele>
        <time>2022-05-07T09:25:25.598Z</time>
      </trkpt>
      <trkpt lat="45.17509" lon="4.28094">
        <ele>881.1</ele>
        <time>2022-05-07T09:25:51.594Z</time>
      </trkpt>
      <trkpt lat="45.17487" lon="4.28089">
        <ele>886.31</ele>
        <time>2022-05-07T09:26:20.000Z</time>
      </trkpt>
      <trkpt lat="45.17463" lon="4.28079">
        <ele>889.36</ele>
        <time>2022-05-07T09:26:50.054Z</time>
      </trkpt>
      <trkpt lat="45.17442" lon="4.28069">
        <ele>892.69</ele>
        <time>2022-05-07T09:27:36.817Z</time>
      </trkpt>
      <trkpt lat="45.17422" lon="4.28051">
        <ele>891.36</ele>
        <time>2022-05-07T09:28:06.739Z</time>
      </trkpt>
      <trkpt lat="45.17405" lon="4.2803">
        <ele>890.28</ele>
        <time>2022-05-07T09:28:34.876Z</time>
      </trkpt>
      <trkpt lat="45.17386" lon="4.28012">
        <ele>890.24</ele>
        <time>2022-05-07T09:29:02.000Z</time>
      </trkpt>
      <trkpt lat="45.17369" lon="4.2799">
        <ele>892.12</ele>
        <time>2022-05-07T09:29:25.797Z</time>
      </trkpt>
      <trkpt lat="45.17351" lon="4.27969">
        <ele>892.67</ele>
        <time>2022-05-07T09:29:50.946Z</time>
      </trkpt>
      <trkpt lat="45.17334" lon="4.27949">
        <ele>895.31</ele>
        <time>2022-05-07T09:30:16.000Z</time>
      </trkpt>
      <trkpt lat="45.17318" lon="4.27925">
        <ele>893.06</ele>
        <time>2022-05-07T09:30:40.821Z</time>
      </trkpt>
      <trkpt lat="45.173" lon="4.27906">
        <ele>892.92</ele>
        <time>2022-05-07T09:31:04.556Z</time>
      </trkpt>
      <trkpt lat="45.17285" lon="4.27881">
        <ele>890.92</ele>
        <time>2022-05-07T09:31:26.900Z</time>
      </trkpt>
      <trkpt lat="45.17269" lon="4.27857">
        <ele>890.37</ele>
        <time>2022-05-07T09:31:48.716Z</time>
      </trkpt>
      <trkpt lat="45.17255" lon="4.27831">
        <ele>890.38</ele>
        <time>2022-05-07T09:32:10.839Z</time>
      </trkpt>
      <trkpt lat="45.17237" lon="4.2781">
        <ele>892.24</ele>
        <time>2022-05-07T09:32:32.875Z</time>
      </trkpt>
      <trkpt lat="45.17224" lon="4.27782">
        <ele>892.7</ele>
        <time>2022-05-07T09:32:55.737Z</time>
      </trkpt>
      <trkpt lat="45.17211" lon="4.27756">
        <ele>894.03</ele>
        <time>2022-05-07T09:33:21.999Z</time>
      </trkpt>
      <trkpt lat="45.17189" lon="4.27761">
        <ele>894.84</ele>
        <time>2022-05-07T09:33:45.000Z</time>
      </trkpt>
      <trkpt lat="45.17167" lon="4.27764">
        <ele>896.46</ele>
        <time>2022-05-07T09:34:07.599Z</time>
      </trkpt>
      <trkpt lat="45.17144" lon="4.27766">
        <ele>897.46</ele>
        <time>2022-05-07T09:34:38.000Z</time>
      </trkpt>
      <trkpt lat="45.17121" lon="4.27771">
        <ele>896.94</ele>
        <time>2022-05-07T09:35:00.893Z</time>
      </trkpt>
      <trkpt lat="45.17097" lon="4.27774">
        <ele>896.04</ele>
        <time>2022-05-07T09:35:23.717Z</time>
      </trkpt>
      <trkpt lat="45.17073" lon="4.27778">
        <ele>897.66</ele>
        <time>2022-05-07T09:35:58.799Z</time>
      </trkpt>
      <trkpt lat="45.17052" lon="4.27765">
        <ele>903.9</ele>
        <time>2022-05-07T09:36:22.000Z</time>
      </trkpt>
      <trkpt lat="45.17032" lon="4.27748">
        <ele>905.01</ele>
        <time>2022-05-07T09:36:44.000Z</time>
      </trkpt>
      <trkpt lat="45.17009" lon="4.27741">
        <ele>902.24</ele>
        <time>2022-05-07T09:37:10.000Z</time>
      </trkpt>
      <trkpt lat="45.16988" lon="4.2773">
        <ele>905.09</ele>
        <time>2022-05-07T09:39:03.000Z</time>
      </trkpt>
      <trkpt lat="45.16965" lon="4.27724">
        <ele>902.6</ele>
        <time>2022-05-07T09:39:27.598Z</time>
      </trkpt>
      <trkpt lat="45.16943" lon="4.27717">
        <ele>899.89</ele>
        <time>2022-05-07T09:39:53.197Z</time>
      </trkpt>
      <trkpt lat="45.1692" lon="4.27711">
        <ele>900.02</ele>
        <time>2022-05-07T09:40:16.000Z</time>
      </trkpt>
      <trkpt lat="45.16897" lon="4.27706">
        <ele>900.36</ele>
        <time>2022-05-07T09:40:36.645Z</time>
      </trkpt>
      <trkpt lat="45.16874" lon="4.27699">
        <ele>899.41</ele>
        <time>2022-05-07T09:42:25.560Z</time>
      </trkpt>
      <trkpt lat="45.16852" lon="4.27693">
        <ele>901.72</ele>
        <time>2022-05-07T09:42:50.085Z</time>
      </trkpt>
      <trkpt lat="45.16829" lon="4.27698">
        <ele>907.24</ele>
        <time>2022-05-07T09:43:11.863Z</time>
      </trkpt>
      <trkpt lat="45.16805" lon="4.27699">
        <ele>911.9</ele>
        <time>2022-05-07T09:43:34.899Z</time>
      </trkpt>
      <trkpt lat="45.16783" lon="4.27693">
        <ele>917.03</ele>
        <time>2022-05-07T09:43:59.000Z</time>
      </trkpt>
      <trkpt lat="45.1676" lon="4.27685">
        <ele>916.47</ele>
        <time>2022-05-07T09:44:36.820Z</time>
      </trkpt>
      <trkpt lat="45.16737" lon="4.27692">
        <ele>913.25</ele>
        <time>2022-05-07T09:45:06.000Z</time>
      </trkpt>
      <trkpt lat="45.16716" lon="4.27704">
        <ele>912.08</ele>
        <time>2022-05-07T09:45:25.620Z</time>
      </trkpt>
      <trkpt lat="45.16695" lon="4.27716">
        <ele>911.69</ele>
        <time>2022-05-07T09:45:44.544Z</time>
      </trkpt>
      <trkpt lat="45.16673" lon="4.27728">
        <ele>915.41</ele>
        <time>2022-05-07T09:46:02.642Z</time>
      </trkpt>
      <trkpt lat="45.16655" lon="4.27746">
        <ele>913.4</ele>
        <time>2022-05-07T09:46:21.845Z</time>
      </trkpt>
      <trkpt lat="45.16633" lon="4.27756">
        <ele>909.27</ele>
        <time>2022-05-07T09:46:42.479Z</time>
      </trkpt>
      <trkpt lat="45.16613" lon="4.27773">
        <ele>906.98</ele>
        <time>2022-05-07T09:47:06.677Z</time>
      </trkpt>
      <trkpt lat="45.16594" lon="4.27792">
        <ele>906.98</ele>
        <time>2022-05-07T09:47:28.801Z</time>
      </trkpt>
      <trkpt lat="45.16578" lon="4.27814">
        <ele>904.57</ele>
        <time>2022-05-07T09:47:49.118Z</time>
      </trkpt>
      <trkpt lat="45.16558" lon="4.27835">
        <ele>904.87</ele>
        <time>2022-05-07T09:48:13.000Z</time>
      </trkpt>
      <trkpt lat="45.16538" lon="4.27851">
        <ele>907.68</ele>
        <time>2022-05-07T09:48:32.000Z</time>
      </trkpt>
      <trkpt lat="45.16519" lon="4.27867">
        <ele>910.78</ele>
        <time>2022-05-07T09:48:52.846Z</time>
      </trkpt>
      <trkpt lat="45.16497" lon="4.27879">
        <ele>908.64</ele>
        <time>2022-05-07T09:49:16.621Z</time>
      </trkpt>
      <trkpt lat="45.16477" lon="4.27895">
        <ele>913.69</ele>
        <time>2022-05-07T09:49:39.685Z</time>
      </trkpt>
      <trkpt lat="45.16461" lon="4.27919">
        <ele>910.23</ele>
        <time>2022-05-07T09:49:59.000Z</time>
      </trkpt>
      <trkpt lat="45.16448" lon="4.27944">
        <ele>912.33</ele>
        <time>2022-05-07T09:50:16.784Z</time>
      </trkpt>
      <trkpt lat="45.16429" lon="4.27962">
        <ele>910.22</ele>
        <time>2022-05-07T09:50:38.763Z</time>
      </trkpt>
      <trkpt lat="45.16409" lon="4.2798">
        <ele>906.81</ele>
        <time>2022-05-07T09:51:01.099Z</time>
      </trkpt>
      <trkpt lat="45.16389" lon="4.27996">
        <ele>906.53</ele>
        <time>2022-05-07T09:51:20.858Z</time>
      </trkpt>
      <trkpt lat="45.1637" lon="4.28017">
        <ele>910.14</ele>
        <time>2022-05-07T09:51:46.084Z</time>
      </trkpt>
      <trkpt lat="45.16349" lon="4.28031">
        <ele>906.08</ele>
        <time>2022-05-07T09:52:07.082Z</time>
      </trkpt>
      <trkpt lat="45.16327" lon="4.28042">
        <ele>903.55</ele>
        <time>2022-05-07T09:52:29.000Z</time>
      </trkpt>
      <trkpt lat="45.16305" lon="4.28049">
        <ele>903.61</ele>
        <time>2022-05-07T09:52:51.000Z</time>
      </trkpt>
      <trkpt lat="45.16282" lon="4.28057">
        <ele>902.26</ele>
        <time>2022-05-07T09:53:12.596Z</time>
      </trkpt>
      <trkpt lat="45.16259" lon="4.28059">
        <ele>900.13</ele>
        <time>2022-05-07T09:53:44.000Z</time>
      </trkpt>
      <trkpt lat="45.16237" lon="4.28066">
        <ele>898.4</ele>
        <time>2022-05-07T09:54:06.717Z</time>
      </trkpt>
      <trkpt lat="45.16215" lon="4.28073">
        <ele>896.36</ele>
        <time>2022-05-07T09:54:27.697Z</time>
      </trkpt>
      <trkpt lat="45.16197" lon="4.28093">
        <ele>891.83</ele>
        <time>2022-05-07T09:54:51.905Z</time>
      </trkpt>
      <trkpt lat="45.1618" lon="4.28113">
        <ele>892.18</ele>
        <time>2022-05-07T09:55:12.078Z</time>
      </trkpt>
      <trkpt lat="45.16162" lon="4.28136">
        <ele>893.87</ele>
        <time>2022-05-07T09:55:31.761Z</time>
      </trkpt>
      <trkpt lat="45.16146" lon="4.2816">
        <ele>894.32</ele>
        <time>2022-05-07T09:55:54.278Z</time>
      </trkpt>
      <trkpt lat="45.16125" lon="4.28172">
        <ele>892.79</ele>
        <time>2022-05-07T09:56:28.000Z</time>
      </trkpt>
      <trkpt lat="45.16102" lon="4.28175">
        <ele>890.88</ele>
        <time>2022-05-07T09:56:58.196Z</time>
      </trkpt>
      <trkpt lat="45.16079" lon="4.28179">
        <ele>887.46</ele>
        <time>2022-05-07T09:57:22.145Z</time>
      </trkpt>
      <trkpt lat="45.16056" lon="4.2818">
        <ele>885.45</ele>
        <time>2022-05-07T09:57:48.000Z</time>
      </trkpt>
      <trkpt lat="45.16033" lon="4.28184">
        <ele>882.11</ele>
        <time>2022-05-07T09:58:13.000Z</time>
      </trkpt>
      <trkpt lat="45.16011" lon="4.28194">
        <ele>879.48</ele>
        <time>2022-05-07T09:58:35.564Z</time>
      </trkpt>
      <trkpt lat="45.15989" lon="4.28198">
        <ele>875.41</ele>
        <time>2022-05-07T09:59:08.004Z</time>
      </trkpt>
      <trkpt lat="45.15966" lon="4.28193">
        <ele>873.12</ele>
        <time>2022-05-07T10:00:05.719Z</time>
      </trkpt>
      <trkpt lat="45.15944" lon="4.28185">
        <ele>870.52</ele>
        <time>2022-05-07T10:00:31.060Z</time>
      </trkpt>
      <trkpt lat="45.15928" lon="4.28208">
        <ele>870.08</ele>
        <time>2022-05-07T10:00:53.183Z</time>
      </trkpt>
      <trkpt lat="45.15916" lon="4.28237">
        <ele>870.24</ele>
        <time>2022-05-07T10:01:16.000Z</time>
      </trkpt>
      <trkpt lat="45.15897" lon="4.28255">
        <ele>869.12</ele>
        <time>2022-05-07T10:01:50.457Z</time>
      </trkpt>
      <trkpt lat="45.15882" lon="4.2828">
        <ele>859.49</ele>
        <time>2022-05-07T10:52:07.783Z</time>
      </trkpt>
      <trkpt lat="45.15859" lon="4.28287">
        <ele>859.49</ele>
        <time>2022-05-07T10:52:36.739Z</time>
      </trkpt>
      <trkpt lat="45.15837" lon="4.2829">
        <ele>859.49</ele>
        <time>2022-05-07T10:53:04.506Z</time>
      </trkpt>
      <trkpt lat="45.15815" lon="4.2828">
        <ele>859.49</ele>
        <time>2022-05-07T10:53:29.167Z</time>
      </trkpt>
      <trkpt lat="45.15794" lon="4.28267">
        <ele>858.56</ele>
        <time>2022-05-07T10:53:59.047Z</time>
      </trkpt>
      <trkpt lat="45.15771" lon="4.28261">
        <ele>856.94</ele>
        <time>2022-05-07T10:54:20.768Z</time>
      </trkpt>
      <trkpt lat="45.15748" lon="4.28258">
        <ele>855.09</ele>
        <time>2022-05-07T10:54:46.000Z</time>
      </trkpt>
      <trkpt lat="45.15725" lon="4.28257">
        <ele>852.16</ele>
        <time>2022-05-07T10:55:11.000Z</time>
      </trkpt>
      <trkpt lat="45.15702" lon="4.28254">
        <ele>852.24</ele>
        <time>2022-05-07T10:55:31.143Z</time>
      </trkpt>
      <trkpt lat="45.15678" lon="4.28246">
        <ele>851.71</ele>
        <time>2022-05-07T10:55:53.941Z</time>
      </trkpt>
      <trkpt lat="45.15656" lon="4.2824">
        <ele>848.96</ele>
        <time>2022-05-07T10:56:15.664Z</time>
      </trkpt>
      <trkpt lat="45.15633" lon="4.28232">
        <ele>848.63</ele>
        <time>2022-05-07T10:56:39.049Z</time>
      </trkpt>
      <trkpt lat="45.15611" lon="4.28224">
        <ele>993.19</ele>
        <time>2022-05-07T10:57:01.000Z</time>
      </trkpt>
      <trkpt lat="45.15588" lon="4.28228">
        <ele>841.75</ele>
        <time>2022-05-07T10:57:26.000Z</time>
      </trkpt>
      <trkpt lat="45.15572" lon="4.28251">
        <ele>839.67</ele>
        <time>2022-05-07T10:57:46.704Z</time>
      </trkpt>
      <trkpt lat="45.15551" lon="4.28269">
        <ele>839.46</ele>
        <time>2022-05-07T10:58:09.109Z</time>
      </trkpt>
      <trkpt lat="45.15529" lon="4.2828">
        <ele>838.15</ele>
        <time>2022-05-07T10:58:30.557Z</time>
      </trkpt>
      <trkpt lat="45.15507" lon="4.28286">
        <ele>840.9</ele>
        <time>2022-05-07T10:59:06.204Z</time>
      </trkpt>
      <trkpt lat="45.15484" lon="4.28281">
        <ele>839.83</ele>
        <time>2022-05-07T10:59:27.723Z</time>
      </trkpt>
      <trkpt lat="45.15462" lon="4.28288">
        <ele>835.01</ele>
        <time>2022-05-07T10:59:48.658Z</time>
      </trkpt>
      <trkpt lat="45.15443" lon="4.28269">
        <ele>832.18</ele>
        <time>2022-05-07T11:00:09.899Z</time>
      </trkpt>
      <trkpt lat="45.1543" lon="4.28243">
        <ele>831.24</ele>
        <time>2022-05-07T11:00:32.546Z</time>
      </trkpt>
      <trkpt lat="45.15406" lon="4.28241">
        <ele>832.51</ele>
        <time>2022-05-07T11:00:56.083Z</time>
      </trkpt>
      <trkpt lat="45.15388" lon="4.2826">
        <ele>833.89</ele>
        <time>2022-05-07T11:01:21.000Z</time>
      </trkpt>
      <trkpt lat="45.1539" lon="4.28295">
        <ele>841.5</ele>
        <time>2022-05-07T11:01:47.061Z</time>
      </trkpt>
      <trkpt lat="45.15387" lon="4.28327">
        <ele>850.44</ele>
        <time>2022-05-07T11:02:25.000Z</time>
      </trkpt>
      <trkpt lat="45.15383" lon="4.28359">
        <ele>855.46</ele>
        <time>2022-05-07T11:02:58.000Z</time>
      </trkpt>
      <trkpt lat="45.15367" lon="4.28381">
        <ele>857.83</ele>
        <time>2022-05-07T11:03:40.699Z</time>
      </trkpt>
      <trkpt lat="45.15347" lon="4.28399">
        <ele>854.59</ele>
        <time>2022-05-07T11:04:16.000Z</time>
      </trkpt>
      <trkpt lat="45.1533" lon="4.28423">
        <ele>852.42</ele>
        <time>2022-05-07T11:04:51.000Z</time>
      </trkpt>
      <trkpt lat="45.1531" lon="4.28439">
        <ele>853.32</ele>
        <time>2022-05-07T11:05:21.000Z</time>
      </trkpt>
      <trkpt lat="45.1529" lon="4.28454">
        <ele>853.37</ele>
        <time>2022-05-07T11:05:47.779Z</time>
      </trkpt>
      <trkpt lat="45.15273" lon="4.28476">
        <ele>853.69</ele>
        <time>2022-05-07T11:06:15.000Z</time>
      </trkpt>
      <trkpt lat="45.15256" lon="4.285">
        <ele>854.95</ele>
        <time>2022-05-07T11:06:40.737Z</time>
      </trkpt>
      <trkpt lat="45.15239" lon="4.2852">
        <ele>861.37</ele>
        <time>2022-05-07T11:07:03.000Z</time>
      </trkpt>
      <trkpt lat="45.15225" lon="4.28546">
        <ele>857.82</ele>
        <time>2022-05-07T11:07:26.719Z</time>
      </trkpt>
      <trkpt lat="45.15214" lon="4.28575">
        <ele>861.72</ele>
        <time>2022-05-07T11:07:52.000Z</time>
      </trkpt>
      <trkpt lat="45.15205" lon="4.28604">
        <ele>864.85</ele>
        <time>2022-05-07T11:08:15.785Z</time>
      </trkpt>
      <trkpt lat="45.15195" lon="4.28634">
        <ele>872.04</ele>
        <time>2022-05-07T11:08:39.785Z</time>
      </trkpt>
      <trkpt lat="45.15188" lon="4.28665">
        <ele>871.86</ele>
        <time>2022-05-07T11:09:03.822Z</time>
      </trkpt>
      <trkpt lat="45.15176" lon="4.28692">
        <ele>880.44</ele>
        <time>2022-05-07T11:09:29.000Z</time>
      </trkpt>
      <trkpt lat="45.15163" lon="4.2872">
        <ele>878.35</ele>
        <time>2022-05-07T11:09:58.000Z</time>
      </trkpt>
      <trkpt lat="45.1515" lon="4.28746">
        <ele>882.49</ele>
        <time>2022-05-07T11:10:37.765Z</time>
      </trkpt>
      <trkpt lat="45.15152" lon="4.28779">
        <ele>884.47</ele>
        <time>2022-05-07T11:11:00.957Z</time>
      </trkpt>
      <trkpt lat="45.15131" lon="4.28789">
        <ele>885.69</ele>
        <time>2022-05-07T11:11:31.000Z</time>
      </trkpt>
      <trkpt lat="45.15108" lon="4.28784">
        <ele>887.99</ele>
        <time>2022-05-07T11:11:51.561Z</time>
      </trkpt>
      <trkpt lat="45.15085" lon="4.28778">
        <ele>887.12</ele>
        <time>2022-05-07T11:12:17.019Z</time>
      </trkpt>
      <trkpt lat="45.15063" lon="4.28766">
        <ele>887.14</ele>
        <time>2022-05-07T11:12:40.000Z</time>
      </trkpt>
      <trkpt lat="45.15042" lon="4.28757">
        <ele>885.16</ele>
        <time>2022-05-07T11:13:03.665Z</time>
      </trkpt>
      <trkpt lat="45.15019" lon="4.28748">
        <ele>884.3</ele>
        <time>2022-05-07T11:13:28.681Z</time>
      </trkpt>
      <trkpt lat="45.14997" lon="4.28757">
        <ele>885.24</ele>
        <time>2022-05-07T11:13:52.606Z</time>
      </trkpt>
      <trkpt lat="45.14979" lon="4.28779">
        <ele>878.62</ele>
        <time>2022-05-07T11:14:26.865Z</time>
      </trkpt>
      <trkpt lat="45.14965" lon="4.28803">
        <ele>876.61</ele>
        <time>2022-05-07T11:14:50.144Z</time>
      </trkpt>
      <trkpt lat="45.14945" lon="4.28819">
        <ele>872.53</ele>
        <time>2022-05-07T11:15:17.180Z</time>
      </trkpt>
      <trkpt lat="45.14927" lon="4.28838">
        <ele>867.59</ele>
        <time>2022-05-07T11:15:41.000Z</time>
      </trkpt>
      <trkpt lat="45.14904" lon="4.28843">
        <ele>861.94</ele>
        <time>2022-05-07T11:16:06.763Z</time>
      </trkpt>
      <trkpt lat="45.14881" lon="4.28838">
        <ele>862.68</ele>
        <time>2022-05-07T11:16:29.177Z</time>
      </trkpt>
      <trkpt lat="45.14857" lon="4.28829">
        <ele>861.87</ele>
        <time>2022-05-07T11:16:51.000Z</time>
      </trkpt>
      <trkpt lat="45.14834" lon="4.2883">
        <ele>862.73</ele>
        <time>2022-05-07T11:17:11.739Z</time>
      </trkpt>
      <trkpt lat="45.14813" lon="4.28842">
        <ele>866.17</ele>
        <time>2022-05-07T11:17:33.000Z</time>
      </trkpt>
      <trkpt lat="45.14793" lon="4.28859">
        <ele>870.06</ele>
        <time>2022-05-07T11:18:09.000Z</time>
      </trkpt>
      <trkpt lat="45.14774" lon="4.28875">
        <ele>872.13</ele>
        <time>2022-05-07T11:18:32.605Z</time>
      </trkpt>
      <trkpt lat="45.14754" lon="4.2889">
        <ele>875.51</ele>
        <time>2022-05-07T11:18:58.785Z</time>
      </trkpt>
      <trkpt lat="45.14731" lon="4.28894">
        <ele>876.86</ele>
        <time>2022-05-07T11:19:28.000Z</time>
      </trkpt>
      <trkpt lat="45.14722" lon="4.28864">
        <ele>876.15</ele>
        <time>2022-05-07T11:19:49.598Z</time>
      </trkpt>
      <trkpt lat="45.14715" lon="4.28832">
        <ele>874.11</ele>
        <time>2022-05-07T11:20:13.541Z</time>
      </trkpt>
      <trkpt lat="45.14709" lon="4.28801">
        <ele>874.31</ele>
        <time>2022-05-07T11:20:35.741Z</time>
      </trkpt>
      <trkpt lat="45.14697" lon="4.28773">
        <ele>877.63</ele>
        <time>2022-05-07T11:20:54.141Z</time>
      </trkpt>
      <trkpt lat="45.14686" lon="4.28745">
        <ele>878.79</ele>
        <time>2022-05-07T11:21:11.779Z</time>
      </trkpt>
      <trkpt lat="45.14674" lon="4.28718">
        <ele>883.17</ele>
        <time>2022-05-07T11:21:37.124Z</time>
      </trkpt>
      <trkpt lat="45.14656" lon="4.28698">
        <ele>886.6</ele>
        <time>2022-05-07T11:21:59.845Z</time>
      </trkpt>
      <trkpt lat="45.14645" lon="4.2867">
        <ele>873.15</ele>
        <time>2022-05-07T11:22:35.699Z</time>
      </trkpt>
      <trkpt lat="45.14649" lon="4.28638">
        <ele>866.11</ele>
        <time>2022-05-07T11:23:06.722Z</time>
      </trkpt>
      <trkpt lat="45.14644" lon="4.28607">
        <ele>865.17</ele>
        <time>2022-05-07T11:23:26.398Z</time>
      </trkpt>
      <trkpt lat="45.14637" lon="4.28576">
        <ele>869.55</ele>
        <time>2022-05-07T11:23:46.716Z</time>
      </trkpt>
      <trkpt lat="45.1465" lon="4.2855">
        <ele>873.55</ele>
        <time>2022-05-07T11:24:10.000Z</time>
      </trkpt>
      <trkpt lat="45.1463" lon="4.28536">
        <ele>870.17</ele>
        <time>2022-05-07T11:24:30.016Z</time>
      </trkpt>
      <trkpt lat="45.14607" lon="4.28535">
        <ele>877.34</ele>
        <time>2022-05-07T11:24:49.000Z</time>
      </trkpt>
      <trkpt lat="45.14601" lon="4.28504">
        <ele>881.92</ele>
        <time>2022-05-07T11:25:59.000Z</time>
      </trkpt>
      <trkpt lat="45.14596" lon="4.28472">
        <ele>885.07</ele>
        <time>2022-05-07T11:26:31.000Z</time>
      </trkpt>
      <trkpt lat="45.14576" lon="4.28455">
        <ele>886.54</ele>
        <time>2022-05-07T11:27:48.000Z</time>
      </trkpt>
      <trkpt lat="45.14553" lon="4.2846">
        <ele>892.61</ele>
        <time>2022-05-07T11:28:17.918Z</time>
      </trkpt>
      <trkpt lat="45.14534" lon="4.28478">
        <ele>890.93</ele>
        <time>2022-05-07T11:28:49.804Z</time>
      </trkpt>
      <trkpt lat="45.14513" lon="4.2849">
        <ele>890.95</ele>
        <time>2022-05-07T11:29:17.599Z</time>
      </trkpt>
      <trkpt lat="45.14493" lon="4.28505">
        <ele>890.81</ele>
        <time>2022-05-07T11:29:45.765Z</time>
      </trkpt>
      <trkpt lat="45.14472" lon="4.28518">
        <ele>883.82</ele>
        <time>2022-05-07T11:30:19.476Z</time>
      </trkpt>
      <trkpt lat="45.1445" lon="4.28527">
        <ele>883.64</ele>
        <time>2022-05-07T11:30:48.922Z</time>
      </trkpt>
      <trkpt lat="45.14427" lon="4.28529">
        <ele>883.24</ele>
        <time>2022-05-07T11:31:17.000Z</time>
      </trkpt>
      <trkpt lat="45.14405" lon="4.28521">
        <ele>881.94</ele>
        <time>2022-05-07T11:31:41.723Z</time>
      </trkpt>
      <trkpt lat="45.14383" lon="4.28509">
        <ele>881.21</ele>
        <time>2022-05-07T11:32:06.299Z</time>
      </trkpt>
      <trkpt lat="45.14359" lon="4.28508">
        <ele>883.86</ele>
        <time>2022-05-07T11:32:33.000Z</time>
      </trkpt>
      <trkpt lat="45.14335" lon="4.2851">
        <ele>884.91</ele>
        <time>2022-05-07T11:32:55.726Z</time>
      </trkpt>
      <trkpt lat="45.14312" lon="4.28512">
        <ele>885.65</ele>
        <time>2022-05-07T11:33:20.000Z</time>
      </trkpt>
      <trkpt lat="45.14289" lon="4.28512">
        <ele>886.87</ele>
        <time>2022-05-07T11:33:41.931Z</time>
      </trkpt>
      <trkpt lat="45.14266" lon="4.28511">
        <ele>885.53</ele>
        <time>2022-05-07T11:34:05.685Z</time>
      </trkpt>
      <trkpt lat="45.1425" lon="4.28488">
        <ele>884.18</ele>
        <time>2022-05-07T11:34:26.504Z</time>
      </trkpt>
      <trkpt lat="45.14232" lon="4.28468">
        <ele>886.82</ele>
        <time>2022-05-07T11:34:50.000Z</time>
      </trkpt>
      <trkpt lat="45.14214" lon="4.28449">
        <ele>887.54</ele>
        <time>2022-05-07T11:36:40.846Z</time>
      </trkpt>
      <trkpt lat="45.14193" lon="4.28433">
        <ele>886.68</ele>
        <time>2022-05-07T11:37:04.788Z</time>
      </trkpt>
      <trkpt lat="45.14171" lon="4.28425">
        <ele>887.71</ele>
        <time>2022-05-07T11:37:29.000Z</time>
      </trkpt>
      <trkpt lat="45.14149" lon="4.28415">
        <ele>888.75</ele>
        <time>2022-05-07T11:37:50.644Z</time>
      </trkpt>
      <trkpt lat="45.14127" lon="4.28407">
        <ele>887.95</ele>
        <time>2022-05-07T11:38:14.163Z</time>
      </trkpt>
      <trkpt lat="45.14104" lon="4.28402">
        <ele>885.08</ele>
        <time>2022-05-07T11:38:36.510Z</time>
      </trkpt>
      <trkpt lat="45.14082" lon="4.28401">
        <ele>885.42</ele>
        <time>2022-05-07T11:38:58.663Z</time>
      </trkpt>
      <trkpt lat="45.1406" lon="4.2839">
        <ele>886.91</ele>
        <time>2022-05-07T11:39:22.000Z</time>
      </trkpt>
      <trkpt lat="45.14044" lon="4.28368">
        <ele>886.36</ele>
        <time>2022-05-07T11:39:44.480Z</time>
      </trkpt>
      <trkpt lat="45.14021" lon="4.2836">
        <ele>881.33</ele>
        <time>2022-05-07T11:40:14.000Z</time>
      </trkpt>
      <trkpt lat="45.13998" lon="4.28358">
        <ele>878.22</ele>
        <time>2022-05-07T11:40:50.521Z</time>
      </trkpt>
      <trkpt lat="45.13975" lon="4.28362">
        <ele>876.56</ele>
        <time>2022-05-07T11:41:13.000Z</time>
      </trkpt>
      <trkpt lat="45.13952" lon="4.28366">
        <ele>872.97</ele>
        <time>2022-05-07T11:41:34.041Z</time>
      </trkpt>
      <trkpt lat="45.13928" lon="4.28363">
        <ele>874.44</ele>
        <time>2022-05-07T11:41:57.206Z</time>
      </trkpt>
      <trkpt lat="45.13906" lon="4.28364">
        <ele>878.07</ele>
        <time>2022-05-07T11:42:20.000Z</time>
      </trkpt>
      <trkpt lat="45.13883" lon="4.28368">
        <ele>877.39</ele>
        <time>2022-05-07T11:42:43.165Z</time>
      </trkpt>
      <trkpt lat="45.1386" lon="4.28364">
        <ele>875.09</ele>
        <time>2022-05-07T11:43:07.683Z</time>
      </trkpt>
      <trkpt lat="45.13838" lon="4.28358">
        <ele>864.34</ele>
        <time>2022-05-07T11:43:39.763Z</time>
      </trkpt>
      <trkpt lat="45.13814" lon="4.28353">
        <ele>860.96</ele>
        <time>2022-05-07T11:44:06.000Z</time>
      </trkpt>
      <trkpt lat="45.13798" lon="4.28377">
        <ele>860.33</ele>
        <time>2022-05-07T11:44:32.306Z</time>
      </trkpt>
      <trkpt lat="45.13781" lon="4.28399">
        <ele>860.92</ele>
        <time>2022-05-07T11:44:57.045Z</time>
      </trkpt>
      <trkpt lat="45.13763" lon="4.2842">
        <ele>856.44</ele>
        <time>2022-05-07T11:45:23.109Z</time>
      </trkpt>
      <trkpt lat="45.13745" lon="4.28439">
        <ele>855.03</ele>
        <time>2022-05-07T11:45:44.687Z</time>
      </trkpt>
      <trkpt lat="45.13728" lon="4.28462">
        <ele>855.16</ele>
        <time>2022-05-07T11:46:06.689Z</time>
      </trkpt>
      <trkpt lat="45.13713" lon="4.28486">
        <ele>852.79</ele>
        <time>2022-05-07T11:46:31.779Z</time>
      </trkpt>
      <trkpt lat="45.13698" lon="4.2851">
        <ele>849.99</ele>
        <time>2022-05-07T11:46:56.699Z</time>
      </trkpt>
      <trkpt lat="45.13683" lon="4.28534">
        <ele>852.4</ele>
        <time>2022-05-07T11:47:24.000Z</time>
      </trkpt>
      <trkpt lat="45.13661" lon="4.28547">
        <ele>855.53</ele>
        <time>2022-05-07T11:48:00.000Z</time>
      </trkpt>
      <trkpt lat="45.13637" lon="4.28556">
        <ele>858.62</ele>
        <time>2022-05-07T11:48:26.846Z</time>
      </trkpt>
      <trkpt lat="45.13613" lon="4.28551">
        <ele>856.46</ele>
        <time>2022-05-07T11:48:52.000Z</time>
      </trkpt>
      <trkpt lat="45.1359" lon="4.28556">
        <ele>852.68</ele>
        <time>2022-05-07T11:49:13.979Z</time>
      </trkpt>
      <trkpt lat="45.13569" lon="4.28569">
        <ele>849.33</ele>
        <time>2022-05-07T11:49:37.000Z</time>
      </trkpt>
      <trkpt lat="45.13546" lon="4.28574">
        <ele>845.1</ele>
        <time>2022-05-07T11:49:58.557Z</time>
      </trkpt>
      <trkpt lat="45.13523" lon="4.28579">
        <ele>844.75</ele>
        <time>2022-05-07T11:50:20.500Z</time>
      </trkpt>
      <trkpt lat="45.13499" lon="4.28581">
        <ele>845.62</ele>
        <time>2022-05-07T11:50:42.425Z</time>
      </trkpt>
      <trkpt lat="45.13477" lon="4.28582">
        <ele>842.94</ele>
        <time>2022-05-07T11:51:06.000Z</time>
      </trkpt>
      <trkpt lat="45.13454" lon="4.28584">
        <ele>848.62</ele>
        <time>2022-05-07T11:51:27.000Z</time>
      </trkpt>
      <trkpt lat="45.13435" lon="4.28566">
        <ele>841.19</ele>
        <time>2022-05-07T11:51:52.000Z</time>
      </trkpt>
      <trkpt lat="45.13412" lon="4.28566">
        <ele>839.38</ele>
        <time>2022-05-07T11:52:17.143Z</time>
      </trkpt>
      <trkpt lat="45.1339" lon="4.28577">
        <ele>845.11</ele>
        <time>2022-05-07T11:52:42.000Z</time>
      </trkpt>
      <trkpt lat="45.13368" lon="4.28586">
        <ele>840.42</ele>
        <time>2022-05-07T11:53:09.061Z</time>
      </trkpt>
      <trkpt lat="45.13345" lon="4.28583">
        <ele>833.18</ele>
        <time>2022-05-07T11:53:43.000Z</time>
      </trkpt>
      <trkpt lat="45.13326" lon="4.28564">
        <ele>824.39</ele>
        <time>2022-05-07T11:57:27.000Z</time>
      </trkpt>
      <trkpt lat="45.13306" lon="4.28546">
        <ele>828.74</ele>
        <time>2022-05-07T11:57:48.000Z</time>
      </trkpt>
      <trkpt lat="45.13287" lon="4.28528">
        <ele>828.18</ele>
        <time>2022-05-07T11:58:08.877Z</time>
      </trkpt>
      <trkpt lat="45.13271" lon="4.28504">
        <ele>829.04</ele>
        <time>2022-05-07T11:58:33.000Z</time>
      </trkpt>
      <trkpt lat="45.1325" lon="4.28488">
        <ele>828.18</ele>
        <time>2022-05-07T11:58:54.666Z</time>
      </trkpt>
      <trkpt lat="45.13231" lon="4.2847">
        <ele>835.07</ele>
        <time>2022-05-07T11:59:14.938Z</time>
      </trkpt>
      <trkpt lat="45.13214" lon="4.28447">
        <ele>835.08</ele>
        <time>2022-05-07T11:59:34.046Z</time>
      </trkpt>
      <trkpt lat="45.13192" lon="4.2844">
        <ele>818.89</ele>
        <time>2022-05-07T12:00:50.165Z</time>
      </trkpt>
      <trkpt lat="45.1317" lon="4.28428">
        <ele>825.2</ele>
        <time>2022-05-07T12:01:15.000Z</time>
      </trkpt>
      <trkpt lat="45.13147" lon="4.28419">
        <ele>824.31</ele>
        <time>2022-05-07T12:02:35.107Z</time>
      </trkpt>
      <trkpt lat="45.13126" lon="4.28405">
        <ele>827.17</ele>
        <time>2022-05-07T12:02:57.559Z</time>
      </trkpt>
      <trkpt lat="45.13104" lon="4.2839">
        <ele>827.17</ele>
        <time>2022-05-07T12:03:20.097Z</time>
      </trkpt>
      <trkpt lat="45.13082" lon="4.2838">
        <ele>827.17</ele>
        <time>2022-05-07T12:03:42.021Z</time>
      </trkpt>
      <trkpt lat="45.13059" lon="4.28374">
        <ele>827.17</ele>
        <time>2022-05-07T12:04:03.820Z</time>
      </trkpt>
      <trkpt lat="45.13037" lon="4.28376">
        <ele>817.28</ele>
        <time>2022-05-07T12:04:25.360Z</time>
      </trkpt>
      <trkpt lat="45.13014" lon="4.28381">
        <ele>818.83</ele>
        <time>2022-05-07T12:04:49.000Z</time>
      </trkpt>
      <trkpt lat="45.12992" lon="4.28387">
        <ele>823.04</ele>
        <time>2022-05-07T12:05:11.638Z</time>
      </trkpt>
      <trkpt lat="45.12969" lon="4.28393">
        <ele>826.73</ele>
        <time>2022-05-07T12:05:39.037Z</time>
      </trkpt>
      <trkpt lat="45.12947" lon="4.28403">
        <ele>829.12</ele>
        <time>2022-05-07T12:06:08.946Z</time>
      </trkpt>
      <trkpt lat="45.12927" lon="4.28418">
        <ele>832.03</ele>
        <time>2022-05-07T12:06:49.622Z</time>
      </trkpt>
      <trkpt lat="45.12906" lon="4.2843">
        <ele>834.8</ele>
        <time>2022-05-07T12:07:16.000Z</time>
      </trkpt>
      <trkpt lat="45.12887" lon="4.28448">
        <ele>836.69</ele>
        <time>2022-05-07T12:07:41.981Z</time>
      </trkpt>
      <trkpt lat="45.12866" lon="4.28465">
        <ele>839.75</ele>
        <time>2022-05-07T12:08:07.000Z</time>
      </trkpt>
      <trkpt lat="45.12846" lon="4.28482">
        <ele>842.05</ele>
        <time>2022-05-07T12:08:48.839Z</time>
      </trkpt>
      <trkpt lat="45.12825" lon="4.28494">
        <ele>845.76</ele>
        <time>2022-05-07T12:09:17.123Z</time>
      </trkpt>
      <trkpt lat="45.12802" lon="4.28501">
        <ele>846.72</ele>
        <time>2022-05-07T12:10:11.845Z</time>
      </trkpt>
      <trkpt lat="45.12779" lon="4.28504">
        <ele>849.15</ele>
        <time>2022-05-07T12:10:39.802Z</time>
      </trkpt>
      <trkpt lat="45.12756" lon="4.28506">
        <ele>851.67</ele>
        <time>2022-05-07T12:11:06.943Z</time>
      </trkpt>
      <trkpt lat="45.12733" lon="4.28509">
        <ele>848.54</ele>
        <time>2022-05-07T12:11:37.000Z</time>
      </trkpt>
      <trkpt lat="45.1271" lon="4.2851">
        <ele>849.76</ele>
        <time>2022-05-07T12:12:03.000Z</time>
      </trkpt>
      <trkpt lat="45.12687" lon="4.28511">
        <ele>852.4</ele>
        <time>2022-05-07T12:12:29.000Z</time>
      </trkpt>
      <trkpt lat="45.12663" lon="4.28513">
        <ele>855.92</ele>
        <time>2022-05-07T12:12:52.960Z</time>
      </trkpt>
      <trkpt lat="45.1264" lon="4.28515">
        <ele>859.43</ele>
        <time>2022-05-07T12:13:21.000Z</time>
      </trkpt>
      <trkpt lat="45.12616" lon="4.28516">
        <ele>864.8</ele>
        <time>2022-05-07T12:14:07.839Z</time>
      </trkpt>
      <trkpt lat="45.12593" lon="4.28523">
        <ele>862.85</ele>
        <time>2022-05-07T12:14:32.741Z</time>
      </trkpt>
      <trkpt lat="45.12573" lon="4.2854">
        <ele>864.79</ele>
        <time>2022-05-07T12:14:55.720Z</time>
      </trkpt>
      <trkpt lat="45.12556" lon="4.28561">
        <ele>865.81</ele>
        <time>2022-05-07T12:15:20.000Z</time>
      </trkpt>
      <trkpt lat="45.12537" lon="4.28582">
        <ele>867.79</ele>
        <time>2022-05-07T12:15:44.901Z</time>
      </trkpt>
      <trkpt lat="45.12518" lon="4.28598">
        <ele>872.09</ele>
        <time>2022-05-07T12:16:13.000Z</time>
      </trkpt>
      <trkpt lat="45.12502" lon="4.28621">
        <ele>870.82</ele>
        <time>2022-05-07T12:16:36.903Z</time>
      </trkpt>
      <trkpt lat="45.12483" lon="4.28639">
        <ele>870.78</ele>
        <time>2022-05-07T12:17:00.760Z</time>
      </trkpt>
      <trkpt lat="45.12464" lon="4.28658">
        <ele>870.91</ele>
        <time>2022-05-07T12:17:25.824Z</time>
      </trkpt>
      <trkpt lat="45.12444" lon="4.28676">
        <ele>871.39</ele>
        <time>2022-05-07T12:17:48.803Z</time>
      </trkpt>
      <trkpt lat="45.12426" lon="4.28695">
        <ele>872.68</ele>
        <time>2022-05-07T12:18:12.418Z</time>
      </trkpt>
      <trkpt lat="45.12406" lon="4.28712">
        <ele>872.68</ele>
        <time>2022-05-07T12:18:37.205Z</time>
      </trkpt>
      <trkpt lat="45.12388" lon="4.28733">
        <ele>869.16</ele>
        <time>2022-05-07T12:19:01.165Z</time>
      </trkpt>
      <trkpt lat="45.12369" lon="4.2875">
        <ele>869.34</ele>
        <time>2022-05-07T12:19:24.781Z</time>
      </trkpt>
      <trkpt lat="45.12347" lon="4.28761">
        <ele>869.23</ele>
        <time>2022-05-07T12:19:50.700Z</time>
      </trkpt>
      <trkpt lat="45.12324" lon="4.28767">
        <ele>865.96</ele>
        <time>2022-05-07T12:21:18.605Z</time>
      </trkpt>
      <trkpt lat="45.12302" lon="4.2877">
        <ele>864.78</ele>
        <time>2022-05-07T12:21:45.000Z</time>
      </trkpt>
      <trkpt lat="45.12278" lon="4.28772">
        <ele>861.78</ele>
        <time>2022-05-07T12:22:12.799Z</time>
      </trkpt>
      <trkpt lat="45.12256" lon="4.2878">
        <ele>861.38</ele>
        <time>2022-05-07T12:22:38.680Z</time>
      </trkpt>
      <trkpt lat="45.12234" lon="4.28787">
        <ele>860.01</ele>
        <time>2022-05-07T12:23:05.725Z</time>
      </trkpt>
      <trkpt lat="45.12212" lon="4.28796">
        <ele>857.37</ele>
        <time>2022-05-07T12:23:31.884Z</time>
      </trkpt>
      <trkpt lat="45.1219" lon="4.28803">
        <ele>856.08</ele>
        <time>2022-05-07T12:23:59.937Z</time>
      </trkpt>
      <trkpt lat="45.12168" lon="4.28811">
        <ele>855.44</ele>
        <time>2022-05-07T12:24:25.645Z</time>
      </trkpt>
      <trkpt lat="45.12147" lon="4.28824">
        <ele>855.26</ele>
        <time>2022-05-07T12:24:51.000Z</time>
      </trkpt>
      <trkpt lat="45.12124" lon="4.28835">
        <ele>854.05</ele>
        <time>2022-05-07T12:25:15.765Z</time>
      </trkpt>
      <trkpt lat="45.12101" lon="4.28839">
        <ele>852.65</ele>
        <time>2022-05-07T12:25:45.000Z</time>
      </trkpt>
      <trkpt lat="45.12079" lon="4.28835">
        <ele>850.36</ele>
        <time>2022-05-07T12:26:15.000Z</time>
      </trkpt>
      <trkpt lat="45.12064" lon="4.28811">
        <ele>848.44</ele>
        <time>2022-05-07T12:26:42.737Z</time>
      </trkpt>
      <trkpt lat="45.12045" lon="4.28794">
        <ele>848.78</ele>
        <time>2022-05-07T12:27:08.657Z</time>
      </trkpt>
      <trkpt lat="45.12022" lon="4.2879">
        <ele>844.12</ele>
        <time>2022-05-07T12:27:33.837Z</time>
      </trkpt>
      <trkpt lat="45.11999" lon="4.28785">
        <ele>842.15</ele>
        <time>2022-05-07T12:28:06.000Z</time>
      </trkpt>
      <trkpt lat="45.11977" lon="4.28777">
        <ele>840.99</ele>
        <time>2022-05-07T12:28:32.000Z</time>
      </trkpt>
      <trkpt lat="45.11954" lon="4.28768">
        <ele>840.73</ele>
        <time>2022-05-07T12:28:57.000Z</time>
      </trkpt>
      <trkpt lat="45.11932" lon="4.28764">
        <ele>834.51</ele>
        <time>2022-05-07T12:29:21.157Z</time>
      </trkpt>
      <trkpt lat="45.11909" lon="4.28764">
        <ele>830.7</ele>
        <time>2022-05-07T12:29:48.038Z</time>
      </trkpt>
      <trkpt lat="45.11885" lon="4.28759">
        <ele>829.96</ele>
        <time>2022-05-07T12:30:13.765Z</time>
      </trkpt>
      <trkpt lat="45.11864" lon="4.28749">
        <ele>830.22</ele>
        <time>2022-05-07T12:30:39.000Z</time>
      </trkpt>
      <trkpt lat="45.11843" lon="4.28735">
        <ele>827.46</ele>
        <time>2022-05-07T12:31:36.000Z</time>
      </trkpt>
      <trkpt lat="45.11821" lon="4.28725">
        <ele>828.1</ele>
        <time>2022-05-07T12:32:01.000Z</time>
      </trkpt>
      <trkpt lat="45.11798" lon="4.28727">
        <ele>828.91</ele>
        <time>2022-05-07T12:32:22.643Z</time>
      </trkpt>
      <trkpt lat="45.11774" lon="4.28726">
        <ele>831.95</ele>
        <time>2022-05-07T12:32:48.000Z</time>
      </trkpt>
      <trkpt lat="45.11754" lon="4.28711">
        <ele>836.87</ele>
        <time>2022-05-07T12:33:17.000Z</time>
      </trkpt>
      <trkpt lat="45.1175" lon="4.28743">
        <ele>836.27</ele>
        <time>2022-05-07T12:34:05.918Z</time>
      </trkpt>
      <trkpt lat="45.11748" lon="4.28776">
        <ele>835.94</ele>
        <time>2022-05-07T12:34:34.999Z</time>
      </trkpt>
      <trkpt lat="45.11752" lon="4.28807">
        <ele>838.38</ele>
        <time>2022-05-07T12:35:12.465Z</time>
      </trkpt>
      <trkpt lat="45.11748" lon="4.28839">
        <ele>841.88</ele>
        <time>2022-05-07T12:39:02.000Z</time>
      </trkpt>
      <trkpt lat="45.11737" lon="4.28867">
        <ele>841.82</ele>
        <time>2022-05-07T12:39:30.667Z</time>
      </trkpt>
      <trkpt lat="45.11714" lon="4.28869">
        <ele>838.06</ele>
        <time>2022-05-07T12:40:08.846Z</time>
      </trkpt>
      <trkpt lat="45.11693" lon="4.28856">
        <ele>838.12</ele>
        <time>2022-05-07T12:40:37.868Z</time>
      </trkpt>
      <trkpt lat="45.11671" lon="4.28842">
        <ele>842.42</ele>
        <time>2022-05-07T12:41:03.827Z</time>
      </trkpt>
      <trkpt lat="45.11649" lon="4.28841">
        <ele>851.38</ele>
        <time>2022-05-07T12:41:35.789Z</time>
      </trkpt>
      <trkpt lat="45.11632" lon="4.28866">
        <ele>851.38</ele>
        <time>2022-05-07T12:41:59.902Z</time>
      </trkpt>
      <trkpt lat="45.11609" lon="4.2887">
        <ele>851.38</ele>
        <time>2022-05-07T12:42:21.624Z</time>
      </trkpt>
      <trkpt lat="45.11596" lon="4.2887">
        <ele>850.78</ele>
        <time>2022-05-07T12:46:54.000Z</time>
      </trkpt>
    </trkseg>
  </trk>
</gpx>